M I D A S
Marine Information and Data Acquisition System
Tripno 917 of the Zeeleeuw from 2005-06-15 06:13:24 to 2005-06-15 14:31:44
Back to CruiseResearch ActivitiesStationsMapUnderway DataData graphs

EquipmentUnitsComment
TimeDGPSUTC
LatitudeDGPSDM.mWGS84
LongitudeDGPSDM.mWGS84
TemperatureSBE03/SBE38deg celciusITS90
ConductivitySBE21S/mITS90
SalinitySBE21 Practical Salinity Units
ChlorophylAChelsea fluorimeterg/lCalibrated in Aceton
Missing or incorrect values are displayed as -999
Sea surface data collected by the RV Zeeleeuw from 2005-06-15 06:12:57 to 2005-06-15 14:43:59
                                                                                    Next 1000 lines
Time Latitude Longitude Temperature Conductivity Salinity ChlorophylA
2005-06-15 06:13:06 51°13.599 2°56.109 21.9359 5.197245 34.596682 -0.680121
2005-06-15 06:13:12 51°13.598 2°56.109 21.9345 5.197034 34.595102 -0.680121
2005-06-15 06:13:17 51°13.598 2°56.109 21.9298 5.196929 34.594825 -0.680121
2005-06-15 06:13:22 51°13.598 2°56.109 21.8727 5.196929 34.595337 -0.680121
2005-06-15 06:13:27 51°13.598 2°56.108 21.8388 5.196929 34.595337 -0.680121
2005-06-15 06:13:32 51°13.598 2°56.107 21.8087 5.196929 34.59585 -0.680121
2005-06-15 06:13:37 51°13.598 2°56.105 21.8 5.196823 34.595573 -0.680121
2005-06-15 06:13:42 51°13.599 2°56.102 21.9142 5.196718 34.59427 -0.680121
2005-06-15 06:13:47 51°13.599 2°56.099 21.8912 5.196823 34.596085 -0.680121
2005-06-15 06:13:52 51°13.6 2°56.094 21.8972 5.196718 34.595808 -0.680121
2005-06-15 06:13:57 51°13.601 2°56.09 21.8994 5.196507 34.594228 -0.680121
2005-06-15 06:14:02 51°13.602 2°56.085 21.8587 5.196507 34.594228 -0.680121
2005-06-15 06:14:07 51°13.603 2°56.079 21.9257 5.196507 34.594741 -0.71383
2005-06-15 06:14:13 51°13.605 2°56.073 21.9383 5.196507 34.595253 -0.680121
2005-06-15 06:14:17 51°13.606 2°56.068 21.9924 5.196296 34.593674 -0.680121
2005-06-15 06:14:22 51°13.607 2°56.063 21.9866 5.196401 34.594976 -0.680121
2005-06-15 06:14:28 51°13.608 2°56.06 21.9967 5.196401 34.594976 -0.680121
2005-06-15 06:14:33 51°13.608 2°56.059 21.9908 5.196296 34.594186 -0.680121
2005-06-15 06:14:37 51°13.608 2°56.059 21.973 5.19619 34.593909 -0.646411
2005-06-15 06:14:42 51°13.608 2°56.061 21.8928 5.196296 34.594699 -0.680121
2005-06-15 06:14:47 51°13.607 2°56.062 21.9041 5.196084 34.593119 -0.680121
2005-06-15 06:14:52 51°13.606 2°56.064 21.896 5.196084 34.594144 -0.680121
2005-06-15 06:14:57 51°13.605 2°56.067 21.9165 5.196084 34.594144 -0.680121
2005-06-15 06:15:02 51°13.604 2°56.07 21.9189 5.196084 34.594144 -0.646411
2005-06-15 06:15:08 51°13.602 2°56.073 21.9226 5.195873 34.59359 -0.71383
2005-06-15 06:15:12 51°13.6 2°56.076 21.9233 5.195873 34.594615 -0.680121
2005-06-15 06:15:17 51°13.598 2°56.08 19.846 5.195768 34.594337 -0.680121
2005-06-15 06:15:22 51°13.596 2°56.084 18.5589 5.178359 34.613879 -0.545283
2005-06-15 06:15:26 51°13.594 2°56.087 17.5992 5.178359 34.613879 -0.545283
2005-06-15 06:15:32 51°13.592 2°56.093 17.1948 5.092251 33.877068 -0.545283
2005-06-15 06:15:37 51°13.589 2°56.097 17.136 5.126229 34.146276 0.634546
2005-06-15 06:15:42 51°13.586 2°56.101 16.8368 4.621405 30.659712 3.80323
2005-06-15 06:15:47 51°13.584 2°56.106 16.6672 4.755709 32.515691 3.668392
2005-06-15 06:15:52 51°13.58 2°56.111 16.5064 4.666801 32.817024 3.027913
2005-06-15 06:15:57 51°13.578 2°56.116 16.5065 4.666801 32.817024 3.027913
2005-06-15 06:16:02 51°13.574 2°56.121 16.4804 4.420847 31.567383 3.600973
2005-06-15 06:16:07 51°13.571 2°56.127 16.3746 4.237898 30.788107 4.544836
2005-06-15 06:16:12 51°13.568 2°56.131 16.3682 3.907403 28.745545 5.117896
2005-06-15 06:16:17 51°13.565 2°56.137 16.3535 3.804857 28.265317 5.926922
2005-06-15 06:16:22 51°13.562 2°56.142 16.3044 3.724452 27.904369 7.207879
2005-06-15 06:16:26 51°13.559 2°56.147 16.2905 3.724452 27.904369 7.207879
2005-06-15 06:16:30 51°13.556 2°56.151 16.2415 3.668817 27.677848 7.073042
2005-06-15 06:16:37 51°13.553 2°56.16 16.2247 3.634048 27.532433 7.207879
2005-06-15 06:16:42 51°13.551 2°56.166 16.2256 3.611606 27.43748 7.376426
2005-06-15 06:16:47 51°13.549 2°56.172 16.2104 3.589797 27.33345 7.376426
2005-06-15 06:16:52 51°13.548 2°56.18 16.1904 3.581791 27.313772 7.511264
2005-06-15 06:16:57 51°13.547 2°56.187 16.2123 3.581791 27.313772 7.511264
2005-06-15 06:17:01 51°13.547 2°56.193 16.2021 3.547761 27.070343 7.511264
2005-06-15 06:17:06 51°13.547 2°56.201 16.2167 3.562406 27.231711 7.511264
2005-06-15 06:17:12 51°13.548 2°56.21 16.2151 3.548394 27.150916 7.544973
2005-06-15 06:17:17 51°13.549 2°56.216 16.2057 3.552609 27.217725 7.71352
2005-06-15 06:17:22 51°13.551 2°56.223 16.2243 3.549343 27.209045 7.71352
2005-06-15 06:17:27 51°13.552 2°56.229 16.2537 3.549343 27.209045 7.71352
2005-06-15 06:17:33 51°13.553 2°56.233 16.2824 3.549871 27.232109 7.814648
2005-06-15 06:17:37 51°13.554 2°56.236 16.2614 3.531644 27.087173 7.780939
2005-06-15 06:17:42 51°13.555 2°56.238 16.3062 3.50183 26.838847 7.71352
2005-06-15 06:17:47 51°13.555 2°56.239 16.2845 3.465802 26.534609 7.74723
2005-06-15 06:17:52 51°13.555 2°56.24 16.3209 3.436412 26.291381 7.882067
2005-06-15 06:17:57 51°13.555 2°56.24 16.3356 3.436412 26.291381 7.882067
2005-06-15 06:18:01 51°13.555 2°56.239 16.335 3.411131 26.078793 7.983195
2005-06-15 06:18:06 51°13.554 2°56.238 16.378 3.393435 25.921922 7.915777
2005-06-15 06:18:12 51°13.552 2°56.236 16.4471 3.366155 25.679116 7.780939
2005-06-15 06:18:18 51°13.551 2°56.233 16.3664 3.319497 25.28526 7.814648
2005-06-15 06:18:22 51°13.549 2°56.23 16.3799 3.271157 24.872104 7.814648
2005-06-15 06:18:27 51°13.548 2°56.228 16.3334 3.271157 24.872104 7.814648
2005-06-15 06:18:33 51°13.546 2°56.225 16.2909 3.23314 24.54205 7.983195
2005-06-15 06:18:38 51°13.545 2°56.223 16.2971 3.1946 24.211548 7.983195
2005-06-15 06:18:43 51°13.545 2°56.223 16.2529 3.163854 23.948668 7.882067
2005-06-15 06:18:48 51°13.545 2°56.223 16.2108 3.12995 23.651653 7.74723
2005-06-15 06:18:53 51°13.546 2°56.224 16.209 3.124159 23.589056 8.084324
2005-06-15 06:18:57 51°13.547 2°56.225 16.2889 3.124159 23.589056 8.084324
2005-06-15 06:19:02 51°13.549 2°56.227 16.2273 3.123001 23.576807 7.814648
2005-06-15 06:19:07 51°13.551 2°56.229 16.2276 3.140479 23.736413 7.780939
2005-06-15 06:19:13 51°13.552 2°56.23 16.2406 3.178595 24.06701 7.780939
2005-06-15 06:19:17 51°13.552 2°56.23 16.2269 3.209553 24.337176 7.74723
2005-06-15 06:19:22 51°13.552 2°56.23 16.2421 3.247989 24.684797 7.983195
2005-06-15 06:19:26 51°13.551 2°56.23 16.2324 3.247989 24.684797 7.983195
2005-06-15 06:19:32 51°13.549 2°56.23 16.2398 3.28053 24.97575 7.949486
2005-06-15 06:19:37 51°13.547 2°56.23 16.2509 3.31223 25.247349 8.084324
2005-06-15 06:19:42 51°13.544 2°56.229 16.2183 3.339192 25.479892 8.084324
2005-06-15 06:19:48 51°13.542 2°56.229 16.1931 3.357519 25.641249 8.185452
2005-06-15 06:19:53 51°13.54 2°56.229 16.1913 3.367103 25.721764 8.185452
2005-06-15 06:19:57 51°13.54 2°56.229 16.1513 3.367103 25.721764 8.185452
2005-06-15 06:20:02 51°13.541 2°56.229 16.183 3.372475 25.768121 8.118033
2005-06-15 06:20:08 51°13.543 2°56.23 16.1563 3.365839 25.710132 8.118033
2005-06-15 06:20:13 51°13.545 2°56.229 16.1459 3.366261 25.716544 8.219161
2005-06-15 06:20:18 51°13.546 2°56.229 16.1477 3.368051 25.734056 8.421418
2005-06-15 06:20:23 51°13.546 2°56.229 16.1797 3.368367 25.739582 8.421418
2005-06-15 06:20:28 51°13.544 2°56.229 16.1758 3.368367 25.739582 8.421418
2005-06-15 06:20:32 51°13.543 2°56.23 16.214 3.372581 25.784737 8.421418
2005-06-15 06:20:37 51°13.541 2°56.231 16.2112 3.386906 25.92129 8.455127
2005-06-15 06:20:42 51°13.539 2°56.233 16.2033 3.404391 26.07667 8.455127
2005-06-15 06:20:47 51°13.537 2°56.234 16.2174 3.424615 26.252577 8.387708
2005-06-15 06:20:52 51°13.536 2°56.236 16.2191 3.434833 26.343212 8.455127
2005-06-15 06:20:58 51°13.534 2°56.237 16.2112 3.430409 26.308572 8.556255
2005-06-15 06:21:02 51°13.533 2°56.237 16.1968 3.430409 26.308572 8.556255
2005-06-15 06:21:08 51°13.534 2°56.237 16.2032 3.415556 26.180562 8.657383
2005-06-15 06:21:12 51°13.535 2°56.235 16.1769 3.397228 26.013547 8.556255
2005-06-15 06:21:17 51°13.538 2°56.232 16.1631 3.358046 25.679395 8.623674
2005-06-15 06:21:22 51°13.541 2°56.228 16.2267 3.315706 25.316386 8.488836
2005-06-15 06:21:27 51°13.544 2°56.222 16.2117 3.315706 25.316386 8.488836
2005-06-15 06:21:32 51°13.547 2°56.214 16.2385 3.313705 25.294813 8.691093
2005-06-15 06:21:37 51°13.549 2°56.206 16.2398 3.317181 25.320872 8.455127
2005-06-15 06:21:41 51°13.551 2°56.2 16.2405 3.32013 25.352797 8.589965
2005-06-15 06:21:47 51°13.553 2°56.19 16.2322 3.329924 25.440699 8.488836
2005-06-15 06:21:52 51°13.554 2°56.18 16.2131 3.338982 25.523857 8.488836
2005-06-15 06:21:57 51°13.555 2°56.17 16.2073 3.338982 25.523857 8.488836
2005-06-15 06:22:01 51°13.556 2°56.16 16.1902 3.341405 25.547649 8.252871
2005-06-15 06:22:08 51°13.558 2°56.145 16.2645 3.318234 25.344762 8.320289
2005-06-15 06:22:12 51°13.56 2°56.134 16.2254 3.297486 25.161691 8.488836
2005-06-15 06:22:17 51°13.562 2°56.122 16.1776 3.27516 24.967897 8.387708
2005-06-15 06:22:22 51°13.565 2°56.108 16.1775 3.24978 24.749592 8.589965
2005-06-15 06:22:26 51°13.567 2°56.099 16.2277 3.24978 24.749592 8.589965
2005-06-15 06:22:32 51°13.572 2°56.081 16.2 3.24304 24.695169 8.421418
2005-06-15 06:22:37 51°13.576 2°56.068 16.2093 3.249464 24.753798 8.421418
2005-06-15 06:22:42 51°13.581 2°56.055 16.2078 3.264418 24.886614 8.353999
2005-06-15 06:22:46 51°13.585 2°56.044 16.1895 3.2819 25.02377 8.522546
2005-06-15 06:22:52 51°13.59 2°56.029 16.1834 3.296433 25.14676 8.252871
2005-06-15 06:22:57 51°13.595 2°56.019 16.1993 3.299909 25.183989 8.320289
2005-06-15 06:23:01 51°13.6 2°56.009 16.2053 3.299909 25.183989 8.320289
2005-06-15 06:23:06 51°13.606 2°55.996 16.182 3.303068 25.21578 8.353999
2005-06-15 06:23:12 51°13.612 2°55.982 16.1854 3.299487 25.186026 8.252871
2005-06-15 06:23:17 51°13.618 2°55.971 16.1737 3.301594 25.203336 8.387708
2005-06-15 06:23:22 51°13.624 2°55.957 16.1933 3.302015 25.208291 8.084324
2005-06-15 06:23:27 51°13.629 2°55.946 16.1717 3.302015 25.208291 8.084324
2005-06-15 06:23:32 51°13.636 2°55.933 16.1544 3.308018 25.258965 8.118033
2005-06-15 06:23:37 51°13.641 2°55.922 16.1605 3.313179 25.303006 7.983195
2005-06-15 06:23:42 51°13.647 2°55.908 16.127 3.320024 25.363639 8.151742
2005-06-15 06:23:46 51°13.652 2°55.898 16.145 3.324764 25.406973 8.118033
2005-06-15 06:23:52 51°13.659 2°55.883 16.1205 3.325817 25.417286 8.387708
2005-06-15 06:23:57 51°13.665 2°55.872 16.1231 3.325817 25.417286 8.387708
2005-06-15 06:24:02 51°13.671 2°55.86 16.1066 3.317602 25.347869 8.151742
2005-06-15 06:24:07 51°13.678 2°55.846 16.1094 3.312652 25.309802 8.320289
2005-06-15 06:24:12 51°13.684 2°55.835 16.0935 3.312021 25.311494 8.353999
2005-06-15 06:24:17 51°13.691 2°55.823 16.1212 3.321183 25.394582 8.488836
2005-06-15 06:24:21 51°13.696 2°55.814 16.1171 3.335718 25.52792 8.657383
2005-06-15 06:24:27 51°13.704 2°55.799 16.1126 3.335718 25.52792 8.657383
2005-06-15 06:24:33 51°13.712 2°55.785 16.1085 3.353096 25.675544 8.556255
2005-06-15 06:24:37 51°13.717 2°55.775 16.0923 3.36089 25.745871 8.691093
2005-06-15 06:24:41 51°13.723 2°55.765 16.0744 3.371634 25.844129 8.758512
2005-06-15 06:24:47 51°13.731 2°55.752 16.0757 3.379007 25.911958 8.85964
2005-06-15 06:24:53 51°13.74 2°55.739 16.0505 3.382062 25.944138 8.792221
2005-06-15 06:24:57 51°13.746 2°55.73 16.0464 3.382062 25.944138 8.792221
2005-06-15 06:25:02 51°13.755 2°55.718 16.0457 3.380376 25.929351 8.85964
2005-06-15 06:25:06 51°13.761 2°55.71 16.0567 3.385643 25.973576 8.85964
2005-06-15 06:25:12 51°13.772 2°55.697 16.05 3.397229 26.074868 8.792221
2005-06-15 06:25:17 51°13.781 2°55.686 16.0319 3.402707 26.127222 9.095606
2005-06-15 06:25:22 51°13.79 2°55.676 16.0381 3.421351 26.293548 9.196734
2005-06-15 06:25:26 51°13.797 2°55.669 16.0288 3.421351 26.293548 9.196734
2005-06-15 06:25:32 51°13.81 2°55.656 16.0084 3.43357 26.402929 9.230443
2005-06-15 06:25:37 51°13.82 2°55.648 16.0155 3.442208 26.483375 9.466409
2005-06-15 06:25:42 51°13.83 2°55.639 16.0001 3.458536 26.62599 9.668665
2005-06-15 06:25:46 51°13.84 2°55.631 16.0163 3.477076 26.786624 9.938341
2005-06-15 06:25:52 51°13.854 2°55.621 16.0045 3.488875 26.89534 9.870922
2005-06-15 06:25:57 51°13.864 2°55.613 16.0115 3.488875 26.89534 9.870922
2005-06-15 06:26:02 51°13.877 2°55.605 16.0016 3.505942 27.045677 10.106888
2005-06-15 06:26:07 51°13.888 2°55.598 15.9925 3.510366 27.087032 10.410272
2005-06-15 06:26:13 51°13.903 2°55.589 15.9618 3.510472 27.094489 10.578819
2005-06-15 06:26:17 51°13.913 2°55.583 15.9464 3.506258 27.065001 10.612529
2005-06-15 06:26:22 51°13.926 2°55.575 15.9447 3.502466 27.036089 10.949623
2005-06-15 06:26:26 51°13.936 2°55.569 15.9387 3.499516 27.011866 10.949623
2005-06-15 06:26:32 51°13.951 2°55.562 15.9305 3.499516 27.011866 10.949623
2005-06-15 06:26:37 51°13.964 2°55.554 15.906 3.505415 27.062833 11.08446
2005-06-15 06:26:42 51°13.975 2°55.548 15.9048 3.510894 27.113744 11.151879
2005-06-15 06:26:46 51°13.986 2°55.541 15.8941 3.4992 27.018222 11.455264
2005-06-15 06:26:52 51°14.001 2°55.531 15.8862 3.504573 27.076808 11.455264
2005-06-15 06:26:57 51°14.012 2°55.524 15.8867 3.504573 27.076808 11.455264
2005-06-15 06:27:02 51°14.026 2°55.514 15.8712 3.511421 27.145566 11.556392
2005-06-15 06:27:06 51°14.035 2°55.507 15.873 3.521219 27.236633 11.590101
2005-06-15 06:27:12 51°14.05 2°55.497 15.8587 3.532597 27.340321 11.826067
2005-06-15 06:27:18 51°14.063 2°55.487 15.8552 3.544713 27.455049 11.893486
2005-06-15 06:27:22 51°14.074 2°55.48 15.8467 3.556302 27.563336 12.028324
2005-06-15 06:27:26 51°14.084 2°55.472 15.8353 3.556302 27.563336 12.028324
2005-06-15 06:27:32 51°14.097 2°55.46 15.8514 3.56294 27.628127 12.129452
2005-06-15 06:27:38 51°14.109 2°55.449 15.8453 3.575794 27.748014 12.297999
2005-06-15 06:27:42 51°14.118 2°55.44 15.8362 3.582537 27.809172 12.23058
2005-06-15 06:27:46 51°14.126 2°55.431 15.816 3.59381 27.913039 12.365418
2005-06-15 06:27:52 51°14.137 2°55.42 15.8234 3.604136 28.008306 12.331708
2005-06-15 06:27:57 51°14.147 2°55.409 15.8091 3.613408 28.09404 12.399127
2005-06-15 06:28:02 51°14.158 2°55.397 15.8014 3.613408 28.09404 12.399127
2005-06-15 06:28:08 51°14.169 2°55.385 15.803 3.622259 28.176204 12.264289
2005-06-15 06:28:10 51°14.174 2°55.379 15.796 3.629108 28.23797 12.23058
2005-06-15 06:28:17 51°14.187 2°55.363 15.7954 3.635641 28.295445 12.095742
2005-06-15 06:28:22 51°14.197 2°55.35 15.8036 3.641858 28.352864 12.466546
2005-06-15 06:28:27 51°14.207 2°55.337 15.803 3.641858 28.352864 12.466546
2005-06-15 06:28:32 51°14.216 2°55.324 15.8116 3.654924 28.47219 12.163161
2005-06-15 06:28:37 51°14.225 2°55.312 15.8104 3.661562 28.536018 12.264289
2005-06-15 06:28:42 51°14.235 2°55.296 15.8045 3.665251 28.573283 12.331708
2005-06-15 06:28:47 51°14.244 2°55.281 15.7989 3.666199 28.58685 12.365418
2005-06-15 06:28:52 51°14.253 2°55.266 15.7919 3.666621 28.595861 12.297999
2005-06-15 06:28:57 51°14.262 2°55.252 15.7989 3.666621 28.595861 12.297999
2005-06-15 06:29:02 51°14.272 2°55.235 15.8004 3.665462 28.586362 12.264289
2005-06-15 06:29:06 51°14.279 2°55.222 15.7919 3.662616 28.56066 12.331708
2005-06-15 06:29:12 51°14.29 2°55.203 15.7872 3.660087 28.53984 12.264289
2005-06-15 06:29:17 51°14.298 2°55.188 15.7813 3.657559 28.516346 12.196871
2005-06-15 06:29:22 51°14.309 2°55.17 15.7719 3.656189 28.506629 12.129452
2005-06-15 06:29:27 51°14.319 2°55.152 15.7606 3.656189 28.506629 12.129452
2005-06-15 06:29:32 51°14.328 2°55.136 15.7513 3.654503 28.493107 11.859777
2005-06-15 06:29:37 51°14.338 2°55.118 15.7485 3.65366 28.487415 11.792358
2005-06-15 06:29:42 51°14.35 2°55.098 15.7448 3.64934 28.451096 11.623811
2005-06-15 06:29:46 51°14.358 2°55.083 15.7334 3.651131 28.468199 11.488973
2005-06-15 06:29:52 51°14.37 2°55.063 15.7229 3.64955 28.456656 11.253007
2005-06-15 06:29:57 51°14.382 2°55.044 15.6983 3.648602 28.453253 11.185589
2005-06-15 06:30:02 51°14.394 2°55.024 15.6945 3.648602 28.453253 11.185589
2005-06-15 06:30:07 51°14.405 2°55.008 15.6686 3.649024 28.463846 10.848494
2005-06-15 06:30:12 51°14.42 2°54.989 15.6627 3.650288 28.481744 10.781076
2005-06-15 06:30:17 51°14.433 2°54.975 15.6527 3.652185 28.504059 10.747366
2005-06-15 06:30:21 51°14.447 2°54.961 15.6414 3.653766 28.522573 10.342853
2005-06-15 06:30:27 51°14.465 2°54.946 15.6298 3.653766 28.522573 10.342853
2005-06-15 06:30:33 51°14.484 2°54.93 15.6082 3.659667 28.581766 10.376563
2005-06-15 06:30:36 51°14.496 2°54.921 15.6054 3.667781 28.660202 10.376563
2005-06-15 06:30:42 51°14.516 2°54.907 15.5957 3.676105 28.74378 10.208016
2005-06-15 06:30:47 51°14.533 2°54.894 15.5915 3.686748 28.847594 10.140597
2005-06-15 06:30:53 51°14.551 2°54.879 15.5799 3.698024 28.955942 10.376563
2005-06-15 06:30:57 51°14.564 2°54.868 15.5728 3.698024 28.955942 10.376563
2005-06-15 06:31:02 51°14.582 2°54.851 15.571 3.707087 29.042968 10.275435
2005-06-15 06:31:07 51°14.599 2°54.836 15.5705 3.723105 29.190647 10.376563
2005-06-15 06:31:13 51°14.616 2°54.819 15.5706 3.740071 29.350648 10.410272
2005-06-15 06:31:17 51°14.631 2°54.806 15.563 3.761149 29.547889 10.477691
2005-06-15 06:31:21 51°14.642 2°54.795 15.5753 3.776535 29.69068 10.443982
2005-06-15 06:31:26 51°14.658 2°54.779 15.5657 3.799827 29.904491 10.342853
2005-06-15 06:31:33 51°14.681 2°54.758 15.5625 3.799827 29.904491 10.342853
2005-06-15 06:31:37 51°14.694 2°54.746 15.5713 3.82607 30.141092 9.870922
2005-06-15 06:31:42 51°14.712 2°54.73 15.5721 3.845568 30.318882 9.4327
2005-06-15 06:31:47 51°14.729 2°54.715 15.5655 3.860219 30.452027 9.230443
2005-06-15 06:31:52 51°14.744 2°54.702 15.5558 3.871707 30.554628 8.589965
2005-06-15 06:31:57 51°14.76 2°54.686 15.5451 3.871707 30.554628 8.589965
2005-06-15 06:32:02 51°14.778 2°54.67 15.5441 3.881931 30.646755 8.151742
2005-06-15 06:32:06 51°14.791 2°54.658 15.5394 3.888888 30.709051 7.71352
2005-06-15 06:32:12 51°14.811 2°54.64 15.4895 3.896688 30.779366 7.410136
2005-06-15 06:32:17 51°14.826 2°54.626 15.4682 3.895318 30.767899 7.241589
2005-06-15 06:32:22 51°14.844 2°54.61 15.4587 3.904066 30.843669 7.309007
2005-06-15 06:32:26 51°14.857 2°54.598 15.4605 3.904066 30.843669 7.309007
2005-06-15 06:32:32 51°14.876 2°54.579 15.4556 3.906069 30.864202 6.870785
2005-06-15 06:32:37 51°14.891 2°54.565 15.4533 3.913026 30.928919 6.870785
2005-06-15 06:32:42 51°14.909 2°54.548 15.4445 3.914607 30.948102 6.466272
2005-06-15 06:32:46 51°14.92 2°54.537 15.4416 3.914607 30.950444 6.264016
2005-06-15 06:32:52 51°14.941 2°54.516 15.4346 3.915662 30.974961 6.297725
2005-06-15 06:32:57 51°14.955 2°54.502 15.4273 3.915662 30.974961 6.297725
2005-06-15 06:33:02 51°14.973 2°54.485 15.4264 3.926097 31.085728 5.859503
2005-06-15 06:33:06 51°14.984 2°54.473 15.4238 3.926414 31.10148 5.792084
2005-06-15 06:33:12 51°15.004 2°54.452 15.4189 3.925571 31.102886 5.522409
2005-06-15 06:33:17 51°15.018 2°54.437 15.4219 3.924411 31.099142 5.050477
2005-06-15 06:33:22 51°15.035 2°54.419 15.4176 3.91756 31.045754 4.949349
2005-06-15 06:33:27 51°15.051 2°54.402 15.4112 3.921882 31.087432 4.612255
2005-06-15 06:33:33 51°15.068 2°54.384 15.4143 3.921882 31.087432 4.612255
2005-06-15 06:33:37 51°15.081 2°54.371 15.4131 3.92146 31.089609 4.409999
2005-06-15 06:33:42 51°15.097 2°54.355 15.4104 3.920195 31.082572 4.241452
2005-06-15 06:33:47 51°15.113 2°54.338 15.4077 3.91893 31.077303 4.039195
2005-06-15 06:33:52 51°15.13 2°54.32 15.4072 3.917666 31.067903 4.106614
2005-06-15 06:33:57 51°15.145 2°54.305 15.4108 3.917666 31.067903 4.106614
2005-06-15 06:34:02 51°15.163 2°54.288 15.4064 3.909865 31.001979 4.072905
2005-06-15 06:34:06 51°15.176 2°54.275 15.4043 3.914503 31.046465 4.005486
2005-06-15 06:34:13 51°15.197 2°54.254 15.4019 3.908074 30.991456 4.039195
2005-06-15 06:34:17 51°15.21 2°54.241 15.4032 3.909444 31.004732 4.207742
2005-06-15 06:34:22 51°15.228 2°54.223 15.4032 3.911763 31.027567 4.207742
2005-06-15 06:34:27 51°15.243 2°54.209 15.3993 3.911763 31.027567 4.207742
2005-06-15 06:34:32 51°15.261 2°54.192 15.4008 3.907758 30.99455 4.409999
2005-06-15 06:34:37 51°15.276 2°54.177 15.3986 3.908812 31.004448 4.308871
2005-06-15 06:34:42 51°15.292 2°54.161 15.4008 3.907547 30.993277 4.072905
2005-06-15 06:34:46 51°15.307 2°54.146 15.3964 3.906387 30.984804 4.106614
2005-06-15 06:34:52 51°15.326 2°54.126 15.389 3.905755 30.980396 3.938067
2005-06-15 06:34:57 51°15.341 2°54.112 15.3897 3.90196 30.949239 4.005486
2005-06-15 06:35:02 51°15.359 2°54.094 15.3866 3.90196 30.949239 4.005486
2005-06-15 06:35:07 51°15.376 2°54.078 15.3839 3.905333 30.979615 3.735811
2005-06-15 06:35:12 51°15.392 2°54.062 15.3802 3.90586 30.986036 3.600973
2005-06-15 06:35:17 51°15.407 2°54.048 15.3804 3.905544 30.98442 3.567264
2005-06-15 06:35:22 51°15.424 2°54.032 15.3743 3.906704 30.99584 3.533554
2005-06-15 06:35:26 51°15.438 2°54.018 15.3766 3.906704 30.99584 3.533554
2005-06-15 06:35:32 51°15.459 2°53.999 15.3747 3.906598 30.994909 3.331298
2005-06-15 06:35:37 51°15.474 2°53.986 15.3703 3.908179 31.011823 3.398717
2005-06-15 06:35:42 51°15.493 2°53.97 15.369 3.90312 30.970658 3.533554
2005-06-15 06:35:46 51°15.507 2°53.96 15.3625 3.905228 30.990461 3.297589
2005-06-15 06:35:53 51°15.53 2°53.942 15.3586 3.911131 31.046161 3.297589
2005-06-15 06:35:57 51°15.546 2°53.93 15.3561 3.911131 31.046161 3.297589
2005-06-15 06:36:02 51°15.563 2°53.916 15.3507 3.910288 31.039888 3.19646
2005-06-15 06:36:06 51°15.577 2°53.906 15.349 3.911342 31.052747 3.162751
2005-06-15 06:36:12 51°15.598 2°53.889 15.3513 3.914293 31.08002 3.129042
2005-06-15 06:36:18 51°15.617 2°53.874 15.3544 3.911553 31.058744 3.162751
2005-06-15 06:36:21 51°15.629 2°53.865 15.3535 3.915136 31.091615 3.297589
2005-06-15 06:36:26 51°15.646 2°53.852 15.3553 3.915136 31.091615 3.297589
2005-06-15 06:36:33 51°15.669 2°53.834 15.3551 3.91851 31.125588 3.23017
2005-06-15 06:36:37 51°15.685 2°53.822 15.3511 3.923569 31.174496 3.095332
2005-06-15 06:36:42 51°15.702 2°53.809 15.3521 3.927996 31.216048 3.061623
2005-06-15 06:36:47 51°15.717 2°53.797 15.3503 3.934005 31.271611 2.994204
2005-06-15 06:36:52 51°15.736 2°53.782 15.3422 3.940119 31.32813 2.960494
2005-06-15 06:36:57 51°15.752 2°53.77 15.3391 3.946443 31.38415 2.926785
2005-06-15 06:37:02 51°15.771 2°53.755 15.3371 3.946443 31.38415 2.926785
2005-06-15 06:37:06 51°15.785 2°53.745 15.3307 3.949079 31.408094 2.893076
2005-06-15 06:37:12 51°15.805 2°53.729 15.3377 3.960147 31.503778 2.859366
2005-06-15 06:37:17 51°15.823 2°53.716 15.3263 3.960463 31.50838 2.690819
2005-06-15 06:37:22 51°15.84 2°53.703 15.3223 3.96605 31.559106 2.690819
2005-06-15 06:37:26 51°15.852 2°53.694 15.3199 3.962466 31.530934 2.758238
2005-06-15 06:37:33 51°15.876 2°53.676 15.3159 3.962466 31.530934 2.758238
2005-06-15 06:37:37 51°15.89 2°53.666 15.3115 3.96995 31.597899 2.690819
2005-06-15 06:37:42 51°15.909 2°53.652 15.3117 3.965101 31.559707 2.724529
2005-06-15 06:37:48 51°15.928 2°53.637 15.307 3.973113 31.634379 2.6234
2005-06-15 06:37:52 51°15.944 2°53.625 15.3047 3.975432 31.657367 2.454853
2005-06-15 06:37:57 51°15.959 2°53.613 15.3219 3.975432 31.657367 2.454853
2005-06-15 06:38:02 51°15.978 2°53.599 15.3379 3.977119 31.674747 2.421144
2005-06-15 06:38:07 51°15.995 2°53.586 15.3153 3.974378 31.652234 2.387435
2005-06-15 06:38:12 51°16.012 2°53.573 15.3124 3.977224 31.681115 2.320016
2005-06-15 06:38:17 51°16.029 2°53.56 15.3078 3.977224 31.684133 2.353725
2005-06-15 06:38:22 51°16.047 2°53.547 15.3051 3.971216 31.63321 2.252597
2005-06-15 06:38:26 51°16.061 2°53.536 15.31 3.971216 31.63321 2.252597
2005-06-15 06:38:33 51°16.083 2°53.52 15.3301 3.972059 31.647329 2.353725
2005-06-15 06:38:37 51°16.098 2°53.508 15.3237 3.977962 31.700953 2.286306
2005-06-15 06:38:42 51°16.116 2°53.495 15.3199 3.977646 31.690292 2.320016
2005-06-15 06:38:46 51°16.129 2°53.485 15.32 3.978595 31.700527 2.252597
2005-06-15 06:38:52 51°16.15 2°53.469 15.3251 3.972902 31.65361 2.185178
2005-06-15 06:38:57 51°16.165 2°53.457 15.3324 3.976381 31.688724 2.151469
2005-06-15 06:39:02 51°16.185 2°53.443 15.3259 3.976381 31.688724 2.151469
2005-06-15 06:39:07 51°16.2 2°53.432 15.3501 3.980914 31.730796 2.185178
2005-06-15 06:39:12 51°16.219 2°53.418 15.3372 3.980492 31.724631 2.252597
2005-06-15 06:39:17 51°16.235 2°53.406 15.3369 3.980387 31.718857 2.185178
2005-06-15 06:39:22 51°16.254 2°53.392 15.3456 3.980176 31.716381 2.185178
2005-06-15 06:39:27 51°16.269 2°53.381 15.3321 3.980176 31.716381 2.185178
2005-06-15 06:39:32 51°16.289 2°53.367 15.3347 3.98513 31.760987 2.218888
2005-06-15 06:39:37 51°16.304 2°53.356 15.3336 3.98629 31.768865 2.151469
2005-06-15 06:39:42 51°16.323 2°53.341 15.3272 3.986817 31.770518 2.151469
2005-06-15 06:39:47 51°16.34 2°53.328 15.3255 3.987028 31.768153 2.286306
2005-06-15 06:39:52 51°16.357 2°53.316 15.3207 3.984287 31.742607 2.185178
2005-06-15 06:39:57 51°16.373 2°53.304 15.3324 3.984287 31.742607 2.185178
2005-06-15 06:40:02 51°16.392 2°53.29 15.3129 3.986184 31.759454 2.218888
2005-06-15 06:40:07 51°16.407 2°53.278 15.3127 3.978278 31.685039 2.286306
2005-06-15 06:40:13 51°16.428 2°53.262 15.3208 3.985552 31.751418 2.218888
2005-06-15 06:40:17 51°16.442 2°53.252 15.3123 3.985447 31.751087 2.286306
2005-06-15 06:40:22 51°16.461 2°53.237 15.3118 3.984709 31.74635 2.218888
2005-06-15 06:40:27 51°16.476 2°53.225 15.3077 3.984709 31.74635 2.218888
2005-06-15 06:40:33 51°16.497 2°53.209 15.3058 3.98376 31.741555 2.151469
2005-06-15 06:40:37 51°16.51 2°53.198 15.3015 3.982706 31.734614 2.353725
2005-06-15 06:40:41 51°16.523 2°53.187 15.3013 3.981546 31.726736 2.421144
2005-06-15 06:40:46 51°16.54 2°53.173 15.3018 3.976803 31.687032 2.353725
2005-06-15 06:40:52 51°16.562 2°53.155 15.2996 3.980492 31.722212 2.320016
2005-06-15 06:40:57 51°16.578 2°53.142 15.3006 3.980387 31.7243 2.320016
2005-06-15 06:41:02 51°16.596 2°53.127 15.2956 3.980387 31.7243 2.320016
2005-06-15 06:41:08 51°16.615 2°53.112 15.3081 3.980492 31.727655 2.286306
2005-06-15 06:41:12 51°16.63 2°53.1 15.2962 3.979333 31.718565 2.252597
2005-06-15 06:41:17 51°16.646 2°53.088 15.2946 3.981336 31.738777 2.353725
2005-06-15 06:41:22 51°16.663 2°53.074 15.2949 3.981125 31.73993 2.320016
2005-06-15 06:41:26 51°16.678 2°53.062 15.2985 3.981125 31.73993 2.320016
2005-06-15 06:41:32 51°16.698 2°53.045 15.2874 3.972797 31.668972 2.286306
2005-06-15 06:41:37 51°16.713 2°53.033 15.2962 3.973113 31.672386 2.252597
2005-06-15 06:41:42 51°16.73 2°53.019 15.2781 3.978173 31.717337 2.286306
2005-06-15 06:41:46 51°16.745 2°53.007 15.2789 3.977752 31.712381 2.286306
2005-06-15 06:41:52 51°16.764 2°52.992 15.2759 3.973957 31.678064 2.320016
2005-06-15 06:41:57 51°16.781 2°52.978 15.2724 3.973957 31.678064 2.320016
2005-06-15 06:42:02 51°16.799 2°52.962 15.2697 3.980703 31.741027 2.185178
2005-06-15 06:42:06 51°16.811 2°52.953 15.2651 3.98123 31.746921 2.185178
2005-06-15 06:42:12 51°16.833 2°52.934 15.2358 3.978384 31.72405 2.286306
2005-06-15 06:42:17 51°16.848 2°52.922 15.2235 3.974168 31.688398 2.185178
2005-06-15 06:42:22 51°16.866 2°52.906 15.2187 3.980809 31.751048 2.320016
2005-06-15 06:42:26 51°16.878 2°52.896 15.2167 3.978174 31.731257 2.218888
2005-06-15 06:42:32 51°16.899 2°52.877 15.2165 3.978174 31.731257 2.218888
2005-06-15 06:42:37 51°16.914 2°52.865 15.2111 3.975011 31.704359 2.252597
2005-06-15 06:42:42 51°16.933 2°52.849 15.209 3.982601 31.774859 2.252597
2005-06-15 06:42:46 51°16.946 2°52.837 15.2086 3.980071 31.752365 2.151469
2005-06-15 06:42:52 51°16.967 2°52.82 15.2065 3.982285 31.779326 2.286306
2005-06-15 06:42:57 51°16.982 2°52.807 15.204 3.982285 31.779326 2.286306
2005-06-15 06:43:02 51°17 2°52.791 15.2015 3.989137 31.849394 2.320016
2005-06-15 06:43:07 51°17.015 2°52.778 15.1972 3.991035 31.875411 2.185178
2005-06-15 06:43:12 51°17.034 2°52.762 15.2005 3.991351 31.885536 2.286306
2005-06-15 06:43:17 51°17.049 2°52.749 15.1963 3.987556 31.854792 2.185178
2005-06-15 06:43:22 51°17.068 2°52.733 15.1949 3.984605 31.831556 2.218888
2005-06-15 06:43:26 51°17.082 2°52.722 15.1942 3.984605 31.831556 2.218888
2005-06-15 06:43:32 51°17.1 2°52.706 15.1954 3.982918 31.820797 2.218888
2005-06-15 06:43:37 51°17.118 2°52.692 15.194 3.986608 31.856087 2.218888
2005-06-15 06:43:41 51°17.132 2°52.682 15.1942 3.989349 31.883546 2.185178
2005-06-15 06:43:47 51°17.154 2°52.665 15.1947 3.991457 31.903547 2.08405
2005-06-15 06:43:52 51°17.171 2°52.652 15.1926 3.991984 31.910073 2.185178
2005-06-15 06:43:57 51°17.187 2°52.64 15.1881 3.991984 31.910073 2.185178
2005-06-15 06:44:02 51°17.205 2°52.626 15.1882 3.993354 31.923504 2.08405
2005-06-15 06:44:07 51°17.221 2°52.614 15.1864 3.993249 31.923786 2.117759
2005-06-15 06:44:12 51°17.241 2°52.601 15.1886 3.99599 31.94821 2.185178
2005-06-15 06:44:17 51°17.257 2°52.591 15.187 3.994303 31.935012 2.185178
2005-06-15 06:44:22 51°17.277 2°52.578 15.1927 3.998731 31.976307 2.08405
2005-06-15 06:44:26 51°17.292 2°52.571 15.1897 3.998731 31.976307 2.08405
2005-06-15 06:44:32 51°17.315 2°52.561 15.1889 3.997782 31.966627 2.08405
2005-06-15 06:44:37 51°17.331 2°52.555 15.1899 4.00221 32.006706 2.151469
2005-06-15 06:44:42 51°17.352 2°52.549 15.1919 3.997255 31.966209 2.117759
2005-06-15 06:44:47 51°17.37 2°52.545 15.1887 3.997888 31.973683 2.218888
2005-06-15 06:44:52 51°17.391 2°52.541 15.1916 4.00727 32.057952 2.117759
2005-06-15 06:44:57 51°17.409 2°52.538 15.19 4.00727 32.057952 2.117759
2005-06-15 06:45:02 51°17.431 2°52.535 15.1921 4.0098 32.079904 2.252597
2005-06-15 06:45:07 51°17.448 2°52.533 15.1912 4.010854 32.086851 2.185178
2005-06-15 06:45:13 51°17.472 2°52.529 15.1893 4.005267 32.038251 2.151469
2005-06-15 06:45:18 51°17.491 2°52.527 15.1883 4.010854 32.087464 2.218888
2005-06-15 06:45:22 51°17.509 2°52.525 15.1866 4.016336 32.135132 2.252597
2005-06-15 06:45:27 51°17.529 2°52.524 15.1873 4.016336 32.135132 2.252597
2005-06-15 06:45:33 51°17.551 2°52.524 15.1916 4.013911 32.114733 2.252597
2005-06-15 06:45:37 51°17.567 2°52.523 15.1887 4.02108 32.17807 2.218888
2005-06-15 06:45:42 51°17.586 2°52.522 15.1848 4.018866 32.158318 2.353725
2005-06-15 06:45:46 51°17.604 2°52.522 15.1812 4.018022 32.152025 2.353725
2005-06-15 06:45:50 51°17.62 2°52.521 15.1779 4.022239 32.189649 2.252597
2005-06-15 06:45:57 51°17.648 2°52.521 15.1799 4.019815 32.168014 2.320016
2005-06-15 06:46:02 51°17.665 2°52.52 15.1828 4.019815 32.168014 2.320016
2005-06-15 06:46:06 51°17.683 2°52.519 15.1782 4.023821 32.205608 2.353725
2005-06-15 06:46:12 51°17.704 2°52.517 15.1737 4.015703 32.131949 2.286306
2005-06-15 06:46:17 51°17.724 2°52.516 15.1732 4.025086 32.218131 2.488563
2005-06-15 06:46:22 51°17.746 2°52.515 15.1731 4.022345 32.194902 2.421144
2005-06-15 06:46:28 51°17.767 2°52.514 15.1674 4.024664 32.21745 2.353725
2005-06-15 06:46:32 51°17.785 2°52.514 15.171 4.024664 32.21745 2.353725
2005-06-15 06:46:37 51°17.803 2°52.512 15.1664 4.025297 32.224947 2.454853
2005-06-15 06:46:42 51°17.825 2°52.512 15.1672 4.016441 32.146528 2.555982
2005-06-15 06:46:46 51°17.84 2°52.511 15.166 4.022556 32.202946 2.488563
2005-06-15 06:46:52 51°17.864 2°52.514 15.1693 4.016336 32.148049 2.6234
2005-06-15 06:46:57 51°17.883 2°52.517 15.1637 4.016336 32.148049 2.6234
2005-06-15 06:47:02 51°17.902 2°52.522 15.1629 4.016336 32.151741 2.488563
2005-06-15 06:47:08 51°17.924 2°52.528 15.1595 4.023926 32.220113 2.522272
2005-06-15 06:47:12 51°17.941 2°52.533 15.1535 4.021607 32.198791 2.6234
2005-06-15 06:47:17 51°17.958 2°52.539 15.1518 4.02108 32.196551 2.589691
2005-06-15 06:47:22 51°17.978 2°52.545 15.1506 4.018444 32.171792 2.589691
2005-06-15 06:47:27 51°17.997 2°52.555 15.152 4.016441 32.15576 2.893076
2005-06-15 06:47:32 51°18.018 2°52.566 15.1502 4.016441 32.15576 2.893076
2005-06-15 06:47:37 51°18.034 2°52.575 15.1447 4.022978 32.216577 2.690819
2005-06-15 06:47:42 51°18.054 2°52.586 15.1399 4.016125 32.156015 2.724529
2005-06-15 06:47:46 51°18.069 2°52.596 15.1366 4.019393 32.186423 2.6234
2005-06-15 06:47:52 51°18.091 2°52.609 15.1359 4.016547 32.165322 2.6234
2005-06-15 06:47:57 51°18.108 2°52.62 15.1349 4.014122 32.144906 2.724529
2005-06-15 06:48:02 51°18.128 2°52.634 15.1352 4.014122 32.144906 2.724529
2005-06-15 06:48:06 51°18.142 2°52.644 15.1354 4.011382 32.122282 2.65711
2005-06-15 06:48:12 51°18.163 2°52.662 15.1376 4.018023 32.182815 2.791947
2005-06-15 06:48:17 51°18.179 2°52.676 15.1364 4.011171 32.12286 2.758238
2005-06-15 06:48:22 51°18.197 2°52.695 15.1326 4.014966 32.161059 2.825657
2005-06-15 06:48:27 51°18.212 2°52.712 15.1306 4.014966 32.161059 2.825657
2005-06-15 06:48:32 51°18.229 2°52.734 15.1301 4.011803 32.135895 2.791947
2005-06-15 06:48:37 51°18.242 2°52.751 15.1272 4.00727 32.097876 2.859366
2005-06-15 06:48:42 51°18.259 2°52.773 15.1228 4.009484 32.118261 2.859366
2005-06-15 06:48:47 51°18.275 2°52.793 15.1187 4.006427 32.091575 2.926785
2005-06-15 06:48:52 51°18.29 2°52.812 15.1168 4.00337 32.063049 2.859366
2005-06-15 06:48:57 51°18.303 2°52.831 15.1142 4.00337 32.063049 2.859366
2005-06-15 06:49:02 51°18.32 2°52.854 15.1098 4.007376 32.100662 2.859366
2005-06-15 06:49:06 51°18.332 2°52.87 15.1077 4.000734 32.04259 2.690819
2005-06-15 06:49:13 51°18.351 2°52.899 15.1035 4.002105 32.057283 2.791947
2005-06-15 06:49:17 51°18.362 2°52.916 15.1019 4.000418 32.044065 2.724529
2005-06-15 06:49:21 51°18.373 2°52.935 15.0976 3.993145 31.981576 2.724529
2005-06-15 06:49:26 51°18.388 2°52.96 15.0951 3.990193 31.95829 2.65711
2005-06-15 06:49:32 51°18.405 2°52.988 15.092 3.990193 31.95829 2.65711
2005-06-15 06:49:37 51°18.417 2°53.008 15.0869 3.988506 31.94507 2.65711
2005-06-15 06:49:42 51°18.432 2°53.034 15.0832 3.987663 31.941216 2.825657
2005-06-15 06:49:47 51°18.446 2°53.057 15.0847 3.986082 31.93016 2.589691
2005-06-15 06:49:52 51°18.459 2°53.08 15.0832 3.986714 31.937032 2.690819
2005-06-15 06:49:57 51°18.472 2°53.1 15.0823 3.986714 31.937032 2.690819
2005-06-15 06:50:02 51°18.487 2°53.126 15.0789 3.985766 31.93101 2.522272
2005-06-15 06:50:06 51°18.498 2°53.144 15.0762 3.981233 31.895433 2.454853
2005-06-15 06:50:12 51°18.515 2°53.172 15.0743 3.976489 31.856748 2.589691
2005-06-15 06:50:17 51°18.527 2°53.194 15.0731 3.97786 31.872652 2.488563
2005-06-15 06:50:22 51°18.541 2°53.22 15.0719 3.971113 31.814857 2.454853
2005-06-15 06:50:26 51°18.55 2°53.24 15.071 3.971113 31.814857 2.454853
2005-06-15 06:50:32 51°18.565 2°53.271 15.0698 3.971851 31.822666 2.555982
2005-06-15 06:50:37 51°18.575 2°53.294 15.0687 3.974697 31.851747 2.454853
2005-06-15 06:50:42 51°18.588 2°53.322 15.0675 3.974697 31.853581 2.454853
2005-06-15 06:50:47 51°18.599 2°53.346 15.0682 3.975646 31.8645 2.454853
2005-06-15 06:50:52 51°18.611 2°53.374 15.0651 3.973854 31.849105 2.454853
2005-06-15 06:50:57 51°18.62 2°53.398 15.0674 3.973538 31.847503 2.387435
2005-06-15 06:51:02 51°18.631 2°53.428 15.0637 3.973538 31.847503 2.387435
2005-06-15 06:51:07 51°18.64 2°53.456 15.0623 3.967318 31.792569 2.252597
2005-06-15 06:51:13 51°18.65 2°53.487 15.0616 3.969532 31.81417 2.353725
2005-06-15 06:51:17 51°18.657 2°53.51 15.063 3.975646 31.870005 2.320016
2005-06-15 06:51:22 51°18.666 2°53.541 15.0606 3.974698 31.863365 2.252597
2005-06-15 06:51:27 51°18.673 2°53.567 15.062 3.974698 31.863365 2.252597
2005-06-15 06:51:33 51°18.682 2°53.602 15.0608 3.971851 31.83855 2.320016
2005-06-15 06:51:37 51°18.69 2°53.624 15.0602 3.970481 31.82692 2.117759
2005-06-15 06:51:42 51°18.698 2°53.656 15.0603 3.968689 31.810302 2.286306
2005-06-15 06:51:46 51°18.705 2°53.68 15.0583 3.968584 31.811803 2.320016
2005-06-15 06:51:53 51°18.714 2°53.718 15.0606 3.973854 31.859501 2.185178
2005-06-15 06:51:57 51°18.72 2°53.741 15.0607 3.973854 31.859501 2.185178
2005-06-15 06:52:02 51°18.728 2°53.773 15.0605 3.973433 31.857569 2.320016
2005-06-15 06:52:07 51°18.734 2°53.8 15.0597 3.969532 31.823333 2.151469
2005-06-15 06:52:12 51°18.742 2°53.832 15.0574 3.969532 31.823333 2.218888
2005-06-15 06:52:17 51°18.748 2°53.859 15.06 3.9728 31.852529 2.320016
2005-06-15 06:52:22 51°18.756 2°53.891 15.0584 3.974171 31.865386 2.320016
2005-06-15 06:52:26 51°18.762 2°53.915 15.061 3.974171 31.865386 2.320016
2005-06-15 06:52:32 51°18.769 2°53.947 15.0621 3.974698 31.870095 2.218888
2005-06-15 06:52:37 51°18.777 2°53.976 15.0619 3.975436 31.876689 2.286306
2005-06-15 06:52:42 51°18.785 2°54.009 15.062 3.969849 31.826769 2.185178
2005-06-15 06:52:46 51°18.791 2°54.032 15.0618 3.97533 31.876972 2.218888
2005-06-15 06:52:52 51°18.8 2°54.067 15.0612 3.969216 31.822952 2.286306
2005-06-15 06:52:57 51°18.806 2°54.094 15.0638 3.96774 31.809767 2.185178
2005-06-15 06:53:03 51°18.815 2°54.128 15.0616 3.96774 31.809767 2.185178
2005-06-15 06:53:07 51°18.82 2°54.152 15.062 3.96637 31.797525 2.151469
2005-06-15 06:53:12 51°18.828 2°54.184 15.0626 3.969638 31.826719 2.185178
2005-06-15 06:53:17 51°18.834 2°54.21 15.0638 3.966054 31.794089 2.286306
2005-06-15 06:53:22 51°18.841 2°54.243 15.0701 3.974065 31.865056 2.185178
2005-06-15 06:53:27 51°18.847 2°54.27 15.072 3.965737 31.789433 2.286306
2005-06-15 06:53:33 51°18.855 2°54.305 15.0715 3.965737 31.789433 2.286306
2005-06-15 06:53:37 51°18.861 2°54.329 15.0735 3.966475 31.796634 2.151469
2005-06-15 06:53:42 51°18.868 2°54.361 15.0714 3.968794 31.818574 2.387435
2005-06-15 06:53:47 51°18.874 2°54.387 15.075 3.964578 31.780296 2.218888
2005-06-15 06:53:53 51°18.883 2°54.422 15.0764 3.971324 31.839955 2.218888
2005-06-15 06:53:57 51°18.888 2°54.446 15.0797 3.971324 31.839955 2.218888
2005-06-15 06:54:02 51°18.896 2°54.479 15.0812 3.969427 31.822391 2.286306
2005-06-15 06:54:07 51°18.902 2°54.508 15.0814 3.971535 31.840615 2.387435
2005-06-15 06:54:12 51°18.909 2°54.537 15.0842 3.964683 31.775136 2.421144
2005-06-15 06:54:17 51°18.915 2°54.564 15.0854 3.964999 31.77674 2.286306
2005-06-15 06:54:22 51°18.923 2°54.593 15.0888 3.969532 31.817223 2.185178
2005-06-15 06:54:26 51°18.929 2°54.62 15.0942 3.969532 31.817223 2.185178
2005-06-15 06:54:32 51°18.937 2°54.655 15.0975 3.962891 31.756084 2.353725
2005-06-15 06:54:37 51°18.944 2°54.682 15.1012 3.969111 31.810404 2.387435
2005-06-15 06:54:41 51°18.949 2°54.706 15.1027 3.964261 31.765882 2.387435
2005-06-15 06:54:46 51°18.957 2°54.738 15.1027 3.970481 31.818978 2.353725
2005-06-15 06:54:52 51°18.965 2°54.771 15.1035 3.962575 31.747776 2.488563
2005-06-15 06:54:57 51°18.972 2°54.801 15.1002 3.962259 31.743734 2.522272
2005-06-15 06:55:02 51°18.979 2°54.833 15.0976 3.962259 31.743734 2.522272
2005-06-15 06:55:06 51°18.985 2°54.857 15.0976 3.970481 31.813483 2.387435
2005-06-15 06:55:12 51°18.994 2°54.893 15.0959 3.964261 31.754911 2.421144
2005-06-15 06:55:17 51°19.001 2°54.923 15.0959 3.970375 31.808269 2.421144
2005-06-15 06:55:22 51°19.008 2°54.952 15.0972 3.970059 31.801785 2.454853
2005-06-15 06:55:27 51°19.014 2°54.978 15.0966 3.970059 31.801785 2.454853
2005-06-15 06:55:33 51°19.023 2°55.014 15.0959 3.967424 31.775824 2.421144
2005-06-15 06:55:37 51°19.029 2°55.038 15.0986 3.965421 31.75734 2.454853
2005-06-15 06:55:42 51°19.037 2°55.07 15.1022 3.967213 31.774552 2.522272
2005-06-15 06:55:46 51°19.043 2°55.094 15.1025 3.968583 31.786783 2.387435
2005-06-15 06:55:53 51°19.053 2°55.132 15.105 3.960993 31.71966 2.488563
2005-06-15 06:55:56 51°19.058 2°55.153 15.1073 3.960993 31.71966 2.488563
2005-06-15 06:56:01 51°19.064 2°55.18 15.1065 3.965948 31.763872 2.387435
2005-06-15 06:56:06 51°19.071 2°55.209 15.1064 3.961837 31.72901 2.421144
2005-06-15 06:56:12 51°19.08 2°55.248 15.1079 3.964156 31.749097 2.454853
2005-06-15 06:56:17 51°19.087 2°55.278 15.1086 3.966369 31.768854 2.454853
2005-06-15 06:56:22 51°19.095 2°55.307 15.111 3.965948 31.764481 2.454853
2005-06-15 06:56:26 51°19.101 2°55.331 15.1125 3.961626 31.724695 2.387435
2005-06-15 06:56:32 51°19.11 2°55.366 15.1152 3.961626 31.724695 2.387435
2005-06-15 06:56:37 51°19.116 2°55.392 15.1151 3.956566 31.678336 2.421144
2005-06-15 06:56:41 51°19.122 2°55.416 15.1185 3.96405 31.743285 2.421144
2005-06-15 06:56:47 51°19.131 2°55.451 15.12 3.962891 31.731721 2.421144
2005-06-15 06:56:52 51°19.139 2°55.483 15.1212 3.958147 31.689403 2.353725
2005-06-15 06:56:57 51°19.146 2°55.513 15.1259 3.961204 31.715457 2.421144
2005-06-15 06:57:02 51°19.153 2°55.54 15.1281 3.961204 31.715457 2.421144
2005-06-15 06:57:07 51°19.16 2°55.569 15.1404 3.959939 31.702957 2.488563
2005-06-15 06:57:12 51°19.168 2°55.602 15.1564 3.959307 31.695491 2.454853
2005-06-15 06:57:17 51°19.175 2°55.629 15.167 3.958252 31.684874 2.488563
2005-06-15 06:57:21 51°19.181 2°55.652 15.1694 3.957409 31.676138 2.488563
2005-06-15 06:57:27 51°19.19 2°55.691 15.1743 3.957409 31.676138 2.488563
2005-06-15 06:57:32 51°19.197 2°55.717 15.1815 3.956987 31.669342 2.488563
2005-06-15 06:57:37 51°19.205 2°55.747 15.1889 3.955722 31.656849 2.387435
2005-06-15 06:57:42 51°19.212 2°55.777 15.1906 3.955301 31.650055 2.454853
2005-06-15 06:57:47 51°19.22 2°55.806 15.1906 3.954457 31.637686 2.522272
2005-06-15 06:57:52 51°19.228 2°55.839 15.196 3.95256 31.613504 2.421144
2005-06-15 06:57:57 51°19.235 2°55.866 15.1993 3.95256 31.613504 2.421144
2005-06-15 06:58:02 51°19.243 2°55.899 15.2024 3.951084 31.591275 2.522272
2005-06-15 06:58:08 51°19.251 2°55.931 15.2016 3.949503 31.57054 2.454853
2005-06-15 06:58:12 51°19.257 2°55.955 15.2075 3.948238 31.554442 2.488563
2005-06-15 06:58:17 51°19.264 2°55.985 15.2076 3.947394 31.538482 2.488563
2005-06-15 06:58:22 51°19.272 2°56.018 15.2127 3.946024 31.522062 2.589691
2005-06-15 06:58:27 51°19.28 2°56.047 15.2158 3.94518 31.51094 2.421144
2005-06-15 06:58:32 51°19.287 2°56.074 15.217 3.94518 31.51094 2.421144
2005-06-15 06:58:37 51°19.295 2°56.103 15.2168 3.944759 31.504175 2.387435
2005-06-15 06:58:41 51°19.302 2°56.13 15.217 3.943178 31.487699 2.589691
2005-06-15 06:58:46 51°19.31 2°56.159 15.2192 3.939699 31.45375 2.555982
2005-06-15 06:58:52 51°19.319 2°56.194 15.2203 3.941491 31.468484 2.454853
2005-06-15 06:58:57 51°19.326 2°56.221 15.2212 3.941491 31.468484 2.454853
2005-06-15 06:59:02 51°19.334 2°56.253 15.2207 3.940331 31.454562 2.488563
2005-06-15 06:59:07 51°19.341 2°56.279 15.2295 3.940015 31.448744 2.454853
2005-06-15 06:59:13 51°19.351 2°56.315 15.2336 3.939277 31.439178 2.522272
2005-06-15 06:59:17 51°19.358 2°56.342 15.2371 3.938118 31.42887 2.488563
2005-06-15 06:59:22 51°19.365 2°56.371 15.2425 3.937696 31.42332 2.6234
2005-06-15 06:59:26 51°19.371 2°56.394 15.2443 3.937696 31.42332 2.6234
2005-06-15 06:59:32 51°19.38 2°56.43 15.2491 3.937274 31.418371 2.522272
2005-06-15 06:59:37 51°19.386 2°56.457 15.2507 3.936747 31.411885 2.555982
2005-06-15 06:59:42 51°19.394 2°56.489 15.2559 3.931055 31.359503 2.522272
2005-06-15 06:59:47 51°19.401 2°56.516 15.2605 3.931688 31.362724 2.522272
2005-06-15 06:59:52 51°19.409 2°56.549 15.2646 3.935588 31.395579 2.522272
2005-06-15 06:59:57 51°19.416 2°56.579 15.2709 3.935588 31.395579 2.522272
2005-06-15 07:00:02 51°19.423 2°56.605 15.2741 3.934955 31.385161 2.488563
2005-06-15 07:00:06 51°19.429 2°56.631 15.2756 3.93369 31.36853 2.555982
2005-06-15 07:00:12 51°19.438 2°56.667 15.2727 3.933796 31.36707 2.555982
2005-06-15 07:00:17 51°19.444 2°56.693 15.2744 3.933163 31.360255 2.522272
2005-06-15 07:00:22 51°19.452 2°56.726 15.2764 3.932847 31.352656 2.555982
2005-06-15 07:00:27 51°19.459 2°56.753 15.2787 3.932847 31.352656 2.555982
2005-06-15 07:00:32 51°19.467 2°56.785 15.2796 3.930739 31.330947 2.589691
2005-06-15 07:00:37 51°19.475 2°56.815 15.2764 3.93116 31.328708 2.589691
2005-06-15 07:00:42 51°19.482 2°56.844 15.2763 3.931265 31.326654 2.522272
2005-06-15 07:00:46 51°19.488 2°56.868 15.2773 3.930106 31.313973 2.6234
2005-06-15 07:00:52 51°19.497 2°56.903 15.2755 3.930317 31.313453 2.724529
2005-06-15 07:00:57 51°19.504 2°56.929 15.2754 3.930317 31.313453 2.724529
2005-06-15 07:01:02 51°19.512 2°56.961 15.2797 3.92863 31.296099 2.555982
2005-06-15 07:01:06 51°19.519 2°56.985 15.2844 3.93 31.308855 2.522272
2005-06-15 07:01:12 51°19.528 2°57.02 15.2859 3.928841 31.297372 2.589691
2005-06-15 07:01:17 51°19.534 2°57.046 15.292 3.927787 31.286827 2.589691
2005-06-15 07:01:22 51°19.543 2°57.079 15.297 3.925995 31.271527 2.555982
2005-06-15 07:01:27 51°19.55 2°57.108 15.3018 3.925995 31.271527 2.555982
2005-06-15 07:01:32 51°19.558 2°57.137 15.3079 3.927681 31.285891 2.690819
2005-06-15 07:01:37 51°19.564 2°57.164 15.309 3.929157 31.299581 2.690819
2005-06-15 07:01:42 51°19.572 2°57.196 15.3099 3.926522 31.275009 2.589691
2005-06-15 07:01:47 51°19.58 2°57.226 15.3108 3.928103 31.287841 2.555982
2005-06-15 07:01:52 51°19.587 2°57.255 15.3091 3.927576 31.279585 2.6234
2005-06-15 07:01:57 51°19.594 2°57.285 15.309 3.927576 31.279585 2.6234
2005-06-15 07:02:02 51°19.601 2°57.314 15.3113 3.925889 31.262837 2.65711
2005-06-15 07:02:07 51°19.608 2°57.34 15.3155 3.9261 31.259341 2.6234
2005-06-15 07:02:12 51°19.616 2°57.37 15.3181 3.926416 31.257972 2.6234
2005-06-15 07:02:17 51°19.623 2°57.399 15.3194 3.925889 31.249724 2.6234
2005-06-15 07:02:22 51°19.632 2°57.431 15.3174 3.921251 31.206233 2.589691
2005-06-15 07:02:26 51°19.638 2°57.454 15.3155 3.923254 31.222198 2.690819
2005-06-15 07:02:32 51°19.646 2°57.49 15.3144 3.923254 31.222198 2.690819
2005-06-15 07:02:37 51°19.653 2°57.516 15.3171 3.925467 31.242413 2.589691
2005-06-15 07:02:42 51°19.66 2°57.545 15.3162 3.925678 31.242494 2.65711
2005-06-15 07:02:47 51°19.668 2°57.577 15.3206 3.925467 31.239435 2.758238
2005-06-15 07:02:52 51°19.676 2°57.606 15.3263 3.925257 31.236376 2.65711
2005-06-15 07:02:57 51°19.683 2°57.633 15.3258 3.925257 31.236376 2.65711
2005-06-15 07:03:02 51°19.691 2°57.665 15.3246 3.924413 31.226522 2.690819
2005-06-15 07:03:06 51°19.697 2°57.688 15.3305 3.924519 31.226861 2.690819
2005-06-15 07:03:12 51°19.706 2°57.723 15.3351 3.924413 31.225927 2.65711
2005-06-15 07:03:17 51°19.713 2°57.753 15.3404 3.923465 31.217521 2.65711
2005-06-15 07:03:21 51°19.719 2°57.773 15.3408 3.921567 31.200115 2.724529
2005-06-15 07:03:27 51°19.727 2°57.808 15.3464 3.923359 31.215397 2.791947
2005-06-15 07:03:33 51°19.736 2°57.843 15.3475 3.923359 31.215397 2.791947
2005-06-15 07:03:37 51°19.742 2°57.867 15.3514 3.919881 31.181013 2.724529
2005-06-15 07:03:41 51°19.748 2°57.89 15.3553 3.921778 31.196632 2.758238
2005-06-15 07:03:47 51°19.757 2°57.925 15.3555 3.923464 31.209789 2.825657
2005-06-15 07:03:52 51°19.765 2°57.957 15.3572 3.923464 31.206816 2.859366
2005-06-15 07:03:57 51°19.773 2°57.987 15.3578 3.922937 31.198582 2.758238
2005-06-15 07:04:02 51°19.781 2°58.016 15.3581 3.922937 31.198582 2.758238
2005-06-15 07:04:06 51°19.787 2°58.04 15.3604 3.923464 31.200872 2.893076
2005-06-15 07:04:12 51°19.796 2°58.071 15.3601 3.921567 31.180507 2.859366
2005-06-15 07:04:17 51°19.803 2°58.101 15.3601 3.923991 31.200192 2.893076
2005-06-15 07:04:21 51°19.811 2°58.127 15.362 3.920302 31.163373 2.960494
2005-06-15 07:04:27 51°19.819 2°58.159 15.3593 3.920302 31.163373 2.960494
2005-06-15 07:04:32 51°19.828 2°58.191 15.3596 3.918405 31.146578 2.926785
2005-06-15 07:04:37 51°19.834 2°58.217 15.3619 3.924624 31.198664 2.926785
2005-06-15 07:04:42 51°19.842 2°58.249 15.3622 3.925045 31.201208 2.960494
2005-06-15 07:04:46 51°19.848 2°58.273 15.3602 3.924729 31.196627 2.859366
2005-06-15 07:04:52 51°19.856 2°58.309 15.3608 3.921461 31.167111 2.893076
2005-06-15 07:04:57 51°19.862 2°58.335 15.3605 3.921461 31.167111 2.893076
2005-06-15 07:05:02 51°19.868 2°58.369 15.3614 3.924834 31.196967 2.994204
2005-06-15 07:05:07 51°19.875 2°58.399 15.3618 3.924413 31.191453 2.960494
2005-06-15 07:05:12 51°19.879 2°58.426 15.363 3.924834 31.195185 2.893076
2005-06-15 07:05:17 51°19.886 2°58.459 15.3649 3.924834 31.194592 2.994204
2005-06-15 07:05:21 51°19.89 2°58.48 15.3656 3.925045 31.197051 2.893076
2005-06-15 07:05:27 51°19.898 2°58.516 15.3658 3.925045 31.195864 3.027913
2005-06-15 07:05:31 51°19.903 2°58.544 15.3671 3.925045 31.195864 3.027913
2005-06-15 07:05:37 51°19.91 2°58.577 15.3691 3.924834 31.194592 3.027913
2005-06-15 07:05:42 51°19.916 2°58.61 15.3705 3.924834 31.194592 2.994204
2005-06-15 07:05:48 51°19.923 2°58.643 15.3717 3.925045 31.195864 3.061623
2005-06-15 07:05:53 51°19.929 2°58.673 15.3693 3.924623 31.191538 3.027913
2005-06-15 07:05:57 51°19.934 2°58.697 15.3704 3.924729 31.193065 3.061623
2005-06-15 07:06:02 51°19.94 2°58.731 15.3698 3.924729 31.193065 3.061623
2005-06-15 07:06:07 51°19.947 2°58.761 15.372 3.924729 31.191878 3.027913
2005-06-15 07:06:11 51°19.952 2°58.785 15.3722 3.925045 31.194083 3.027913
2005-06-15 07:06:17 51°19.959 2°58.821 15.3725 3.924518 31.188825 2.994204
2005-06-15 07:06:22 51°19.965 2°58.851 15.3752 3.92515 31.192048 3.095332
2005-06-15 07:06:26 51°19.969 2°58.872 15.3735 3.92515 31.192048 3.095332
2005-06-15 07:06:31 51°19.975 2°58.902 15.3763 3.922304 31.165676 3.19646
2005-06-15 07:06:37 51°19.983 2°58.941 15.3794 3.92515 31.190861 3.095332
2005-06-15 07:06:42 51°19.989 2°58.971 15.3806 3.92515 31.190861 3.19646
2005-06-15 07:06:46 51°19.993 2°58.995 15.3806 3.92515 31.190267 3.19646
2005-06-15 07:06:53 51°20.001 2°59.035 15.3822 3.92378 31.177548 3.263879
2005-06-15 07:06:57 51°20.007 2°59.062 15.3847 3.925256 31.190013 3.263879
2005-06-15 07:07:02 51°20.013 2°59.092 15.3834 3.925256 31.190013 3.263879
2005-06-15 07:07:07 51°20.018 2°59.122 15.3847 3.925361 31.190353 3.162751
2005-06-15 07:07:12 51°20.024 2°59.15 15.3847 3.92515 31.1873 3.297589
2005-06-15 07:07:17 51°20.03 2°59.18 15.386 3.925467 31.188912 3.365007
2005-06-15 07:07:22 51°20.037 2°59.213 15.3861 3.925572 31.188658 3.466136
2005-06-15 07:07:27 51°20.043 2°59.243 15.3878 3.923991 31.173482 3.398717
2005-06-15 07:07:32 51°20.049 2°59.27 15.3892 3.923991 31.173482 3.398717
2005-06-15 07:07:37 51°20.055 2°59.301 15.3879 3.925466 31.185352 3.365007
2005-06-15 07:07:42 51°20.062 2°59.334 15.3867 3.925572 31.185098 3.499845
2005-06-15 07:07:47 51°20.069 2°59.361 15.3847 3.92515 31.180182 3.533554
2005-06-15 07:07:52 51°20.076 2°59.394 15.3893 3.924096 31.17145 3.499845
2005-06-15 07:07:57 51°20.082 2°59.421 15.4009 3.92631 31.189253 3.567264
2005-06-15 07:08:02 51°20.09 2°59.454 15.411 3.92631 31.189253 3.567264
2005-06-15 07:08:07 51°20.096 2°59.482 15.4147 3.92631 31.189846 3.76952
2005-06-15 07:08:12 51°20.103 2°59.515 15.419 3.925993 31.184676 3.634683
2005-06-15 07:08:17 51°20.109 2°59.545 15.4209 3.926626 31.190864 3.634683
2005-06-15 07:08:22 51°20.115 2°59.575 15.4192 3.926731 31.191204 3.600973
2005-06-15 07:08:26 51°20.121 2°59.599 15.4205 3.926731 31.191204 3.600973
2005-06-15 07:08:32 51°20.128 2°59.636 15.4211 3.926837 31.191543 3.634683
2005-06-15 07:08:37 51°20.134 2°59.663 15.4173 3.926415 31.18722 3.533554
2005-06-15 07:08:42 51°20.14 2°59.696 15.4163 3.92631 31.180358 3.600973
2005-06-15 07:08:46 51°20.145 2°59.721 15.4187 3.92652 31.176295 3.567264
2005-06-15 07:08:52 51°20.153 2°59.757 15.4194 3.924939 31.158169 3.634683
2005-06-15 07:08:57 51°20.158 2°59.784 15.4191 3.926099 31.165458 3.668392
2005-06-15 07:09:02 51°20.165 2°59.817 15.419 3.926099 31.165458 3.668392
2005-06-15 07:09:07 51°20.172 2°59.847 15.4185 3.925361 31.157159 3.870648
2005-06-15 07:09:12 51°20.179 2°59.877 15.4173 3.924412 31.146998 3.870648
2005-06-15 07:09:17 51°20.185 2°59.907 15.4184 3.922304 31.128366 3.971777
2005-06-15 07:09:22 51°20.192 2°59.937 15.4171 3.92399 31.143864 4.039195
2005-06-15 07:09:27 51°20.198 2°59.967 15.4171 3.92399 31.143864 4.039195
2005-06-15 07:09:32 51°20.204 2°59.997 15.4161 3.923042 31.135479 3.938067
2005-06-15 07:09:37 51°20.21 3°0.024 15.4135 3.922515 31.130229 3.904358
2005-06-15 07:09:42 51°20.217 3°0.057 15.4145 3.921882 31.124049 4.039195
2005-06-15 07:09:47 51°20.223 3°0.087 15.4109 3.920828 31.115325 3.938067
2005-06-15 07:09:52 51°20.228 3°0.117 15.4106 3.920301 31.110667 4.039195
2005-06-15 07:09:57 51°20.234 3°0.144 15.4094 3.920301 31.110667 4.039195
2005-06-15 07:10:01 51°20.239 3°0.168 15.4079 3.919247 31.102535 4.072905
2005-06-15 07:10:07 51°20.246 3°0.204 15.4057 3.919036 31.09949 4.140324
2005-06-15 07:10:12 51°20.253 3°0.237 15.4053 3.918825 31.097627 4.039195
2005-06-15 07:10:17 51°20.259 3°0.264 15.4045 3.916928 31.083224 4.241452
2005-06-15 07:10:22 51°20.265 3°0.297 15.4035 3.916401 31.078567 4.174033
2005-06-15 07:10:27 51°20.271 3°0.327 15.4018 3.916401 31.078567 4.174033
2005-06-15 07:10:32 51°20.278 3°0.356 15.4053 3.915452 31.071956 4.174033
2005-06-15 07:10:37 51°20.283 3°0.383 15.4048 3.914714 31.066026 4.140324
2005-06-15 07:10:42 51°20.29 3°0.416 15.407 3.91366 31.057893 4.207742
2005-06-15 07:10:46 51°20.295 3°0.44 15.4104 3.913239 31.055348 4.207742
2005-06-15 07:10:52 51°20.303 3°0.476 15.4182 3.911552 31.041625 4.140324
2005-06-15 07:10:57 51°20.309 3°0.503 15.4224 3.910393 31.03256 4.140324
2005-06-15 07:11:02 51°20.315 3°0.535 15.4259 3.910393 31.03256 4.140324
2005-06-15 07:11:06 51°20.32 3°0.559 15.4295 3.909128 31.021973 4.409999
2005-06-15 07:11:12 51°20.328 3°0.595 15.4376 3.90565 30.990063 4.275161
2005-06-15 07:11:17 51°20.333 3°0.621 15.4418 3.907125 31.004278 4.275161
2005-06-15 07:11:22 51°20.34 3°0.654 15.4467 3.90586 30.991925 4.409999
2005-06-15 07:11:27 51°20.346 3°0.681 15.4503 3.90586 30.991925 4.409999
2005-06-15 07:11:32 51°20.351 3°0.711 15.4558 3.901328 30.950123 4.308871
2005-06-15 07:11:37 51°20.358 3°0.743 15.4575 3.903752 30.969182 4.376289
2005-06-15 07:11:42 51°20.363 3°0.77 15.4592 3.902804 30.955509 4.443708
2005-06-15 07:11:47 51°20.369 3°0.799 15.4604 3.902066 30.94723 4.376289
2005-06-15 07:11:52 51°20.376 3°0.832 15.4635 3.902066 30.94194 4.511127
2005-06-15 07:11:57 51°20.382 3°0.858 15.4633 3.902066 30.94194 4.511127
2005-06-15 07:12:02 51°20.388 3°0.891 15.4629 3.900379 30.922941 4.409999
2005-06-15 07:12:07 51°20.394 3°0.918 15.4636 3.899747 30.91325 4.409999
2005-06-15 07:12:13 51°20.4 3°0.953 15.4651 3.899114 30.902975 4.612255
2005-06-15 07:12:17 51°20.405 3°0.977 15.4668 3.897849 30.888883 4.544836
2005-06-15 07:12:22 51°20.411 3°1.009 15.4701 3.896479 30.87445 4.645965
2005-06-15 07:12:28 51°20.417 3°1.042 15.4737 3.896057 30.867802 4.713383
2005-06-15 07:12:32 51°20.422 3°1.068 15.4778 3.896057 30.867802 4.713383
2005-06-15 07:12:37 51°20.428 3°1.095 15.4801 3.893949 30.847454 4.747093
2005-06-15 07:12:42 51°20.434 3°1.124 15.4791 3.894792 30.853134 4.88193
2005-06-15 07:12:46 51°20.439 3°1.15 15.4781 3.894371 30.849416 4.91564
2005-06-15 07:12:52 51°20.446 3°1.183 15.4767 3.894054 30.844871 5.016768
2005-06-15 07:12:57 51°20.452 3°1.212 15.4761 3.893422 30.838125 4.949349
2005-06-15 07:13:02 51°20.459 3°1.244 15.4773 3.893422 30.838125 4.949349
2005-06-15 07:13:07 51°20.465 3°1.27 15.4771 3.893 30.833237 5.050477
2005-06-15 07:13:12 51°20.472 3°1.302 15.4778 3.891841 30.819507 5.151606
2005-06-15 07:13:17 51°20.478 3°1.328 15.4797 3.891208 30.81101 5.320153
2005-06-15 07:13:22 51°20.484 3°1.36 15.4828 3.890049 30.799623 5.320153
2005-06-15 07:13:27 51°20.491 3°1.39 15.4848 3.890049 30.799623 5.320153
2005-06-15 07:13:32 51°20.497 3°1.419 15.4872 3.888995 30.790333 5.45499
2005-06-15 07:13:37 51°20.503 3°1.448 15.4867 3.888152 30.782318 5.556118
2005-06-15 07:13:42 51°20.509 3°1.477 15.4864 3.883198 30.739832 5.657247
2005-06-15 07:13:47 51°20.515 3°1.506 15.4897 3.886149 30.765254 5.657247
2005-06-15 07:13:52 51°20.521 3°1.536 15.4919 3.8852 30.755728 5.724665
2005-06-15 07:13:57 51°20.526 3°1.562 15.4925 3.8852 30.755728 5.724665
2005-06-15 07:14:02 51°20.532 3°1.595 15.4957 3.883935 30.744584 5.724665
2005-06-15 07:14:07 51°20.537 3°1.621 15.4964 3.88246 30.729834 5.792084
2005-06-15 07:14:12 51°20.543 3°1.654 15.4972 3.879192 30.698722 5.859503
2005-06-15 07:14:17 51°20.548 3°1.68 15.4967 3.881722 30.721004 6.095469
2005-06-15 07:14:21 51°20.554 3°1.707 15.4944 3.880879 30.711829 6.095469
2005-06-15 07:14:26 51°20.559 3°1.737 15.4923 3.881089 30.711939 6.095469
2005-06-15 07:14:32 51°20.566 3°1.772 15.4911 3.881089 30.711939 6.095469
2005-06-15 07:14:37 51°20.572 3°1.802 15.4886 3.880773 30.70799 6.264016
2005-06-15 07:14:42 51°20.578 3°1.831 15.488 3.880457 30.703459 6.264016
2005-06-15 07:14:47 51°20.584 3°1.858 15.4876 3.876768 30.669811 6.398853
2005-06-15 07:14:52 51°20.59 3°1.89 15.4834 3.876452 30.665283 6.331435
2005-06-15 07:14:57 51°20.596 3°1.917 15.483 3.876452 30.665283 6.331435
2005-06-15 07:15:02 51°20.602 3°1.946 15.4804 3.879192 30.689993 6.5674
2005-06-15 07:15:07 51°20.609 3°1.979 15.4773 3.878876 30.687209 6.668529
2005-06-15 07:15:12 51°20.615 3°2.008 15.4751 3.875714 30.659949 6.466272
2005-06-15 07:15:17 51°20.62 3°2.034 15.4714 3.878244 30.684549 6.702238
2005-06-15 07:15:21 51°20.625 3°2.061 15.4715 3.877611 30.678398 6.533691
2005-06-15 07:15:26 51°20.631 3°2.091 15.4674 3.877611 30.678398 6.533691
2005-06-15 07:15:32 51°20.638 3°2.127 15.4638 3.876452 30.669933 6.668529
2005-06-15 07:15:37 51°20.643 3°2.157 15.4631 3.875819 30.66669 6.466272
2005-06-15 07:15:42 51°20.649 3°2.186 15.461 3.871603 30.630728 6.668529
2005-06-15 07:15:47 51°20.654 3°2.213 15.4603 3.874765 30.659734 6.60111
2005-06-15 07:15:52 51°20.662 3°2.245 15.4607 3.873184 30.648716 6.803366
2005-06-15 07:15:57 51°20.668 3°2.271 15.4622 3.872341 30.641872 6.60111
2005-06-15 07:16:02 51°20.674 3°2.3 15.46 3.872341 30.641872 6.60111
2005-06-15 07:16:08 51°20.683 3°2.335 15.4575 3.870866 30.631781 6.533691
2005-06-15 07:16:12 51°20.688 3°2.358 15.4597 3.869179 30.619833 6.60111
2005-06-15 07:16:17 51°20.695 3°2.388 15.4583 3.867282 30.606028 6.702238
2005-06-15 07:16:22 51°20.702 3°2.417 15.4579 3.866123 30.595817 6.735947
2005-06-15 07:16:28 51°20.71 3°2.452 15.4578 3.865174 30.590364 6.837076
2005-06-15 07:16:32 51°20.716 3°2.476 15.4544 3.865174 30.590364 6.837076
2005-06-15 07:16:37 51°20.722 3°2.505 15.4533 3.864647 30.586883 6.870785
2005-06-15 07:16:42 51°20.73 3°2.534 15.4529 3.863172 30.573307 6.870785
2005-06-15 07:16:47 51°20.737 3°2.563 15.4517 3.862855 30.571102 6.971913
2005-06-15 07:16:52 51°20.745 3°2.595 15.4536 3.853369 30.488156 6.971913
2005-06-15 07:16:57 51°20.751 3°2.622 15.4524 3.853369 30.488156 6.971913
2005-06-15 07:17:02 51°20.758 3°2.654 15.4545 3.86022 30.549636 7.005623
2005-06-15 07:17:06 51°20.764 3°2.678 15.4535 3.859588 30.544067 7.14046
2005-06-15 07:17:13 51°20.773 3°2.715 15.4546 3.859693 30.544995 6.971913
2005-06-15 07:17:17 51°20.779 3°2.739 15.4526 3.858745 30.53838 6.971913
2005-06-15 07:17:22 51°20.787 3°2.771 15.4543 3.858218 30.535477 7.14046
2005-06-15 07:17:27 51°20.794 3°2.797 15.4532 3.858218 30.535477 7.14046
2005-06-15 07:17:33 51°20.801 3°2.833 15.4511 3.858112 30.534549 7.106751
2005-06-15 07:17:37 51°20.807 3°2.856 15.4524 3.857796 30.531764 7.14046
2005-06-15 07:17:41 51°20.812 3°2.88 15.451 3.858218 30.535477 7.073042
2005-06-15 07:17:47 51°20.821 3°2.918 15.452 3.85495 30.506704 7.17417
2005-06-15 07:17:52 51°20.828 3°2.948 15.4525 3.857164 30.526195 7.207879
2005-06-15 07:17:57 51°20.835 3°2.977 15.4503 3.856215 30.517842 7.241589
2005-06-15 07:18:03 51°20.842 3°3.01 15.4519 3.856215 30.517842 7.241589
2005-06-15 07:18:07 51°20.848 3°3.033 15.4527 3.85474 30.504848 7.241589
2005-06-15 07:18:12 51°20.855 3°3.065 15.4532 3.856637 30.521554 7.376426
2005-06-15 07:18:17 51°20.862 3°3.092 15.4566 3.856637 30.521554 7.309007
2005-06-15 07:18:22 51°20.87 3°3.124 15.4562 3.856321 30.519928 7.376426
2005-06-15 07:18:26 51°20.875 3°3.147 15.4548 3.856426 30.520856 7.275298
2005-06-15 07:18:32 51°20.884 3°3.183 15.4551 3.856426 30.520856 7.275298
2005-06-15 07:18:37 51°20.89 3°3.209 15.4549 3.853475 30.493711 7.443845
2005-06-15 07:18:42 51°20.897 3°3.239 15.4519 3.85495 30.50902 7.410136
2005-06-15 07:18:46 51°20.904 3°3.265 15.4507 3.854845 30.507513 7.511264
2005-06-15 07:18:52 51°20.913 3°3.3 15.45 3.856637 30.523292 7.410136
2005-06-15 07:18:57 51°20.919 3°3.327 15.4491 3.856637 30.523292 7.410136
2005-06-15 07:19:02 51°20.927 3°3.356 15.449 3.856637 30.522133 7.376426
2005-06-15 07:19:06 51°20.933 3°3.383 15.4456 3.856742 30.521324 7.17417
2005-06-15 07:19:12 51°20.942 3°3.418 15.4448 3.856004 30.515406 7.309007
2005-06-15 07:19:17 51°20.948 3°3.444 15.4447 3.854845 30.505776 7.309007
2005-06-15 07:19:22 51°20.956 3°3.474 15.4447 3.855372 30.510417 7.241589
2005-06-15 07:19:26 51°20.962 3°3.5 15.4461 3.855056 30.509369 7.275298
2005-06-15 07:19:33 51°20.971 3°3.539 15.4453 3.855056 30.509369 7.275298
2005-06-15 07:19:37 51°20.977 3°3.562 15.4447 3.854529 30.504728 7.14046
2005-06-15 07:19:42 51°20.984 3°3.594 15.4473 3.852948 30.492543 7.106751
2005-06-15 07:19:47 51°20.991 3°3.624 15.4461 3.853686 30.500197 7.275298
2005-06-15 07:19:52 51°20.998 3°3.653 15.4475 3.85337 30.497991 7.207879
2005-06-15 07:19:57 51°21.005 3°3.683 15.4484 3.853053 30.496364 7.241589
2005-06-15 07:20:02 51°21.012 3°3.711 15.4477 3.853053 30.496364 7.241589
2005-06-15 07:20:07 51°21.018 3°3.737 15.4459 3.852632 30.492652 7.410136
2005-06-15 07:20:12 51°21.025 3°3.761 15.4464 3.850629 30.475017 7.14046
2005-06-15 07:20:17 51°21.031 3°3.784 15.4467 3.851683 30.483719 7.241589
2005-06-15 07:20:22 51°21.036 3°3.806 15.4474 3.850524 30.474088 7.275298
2005-06-15 07:20:28 51°21.043 3°3.827 15.4488 3.850524 30.474088 7.275298
2005-06-15 07:20:32 51°21.047 3°3.842 15.4492 3.851999 30.486504 7.275298
2005-06-15 07:20:37 51°21.052 3°3.859 15.449 3.851472 30.48302 7.073042
2005-06-15 07:20:42 51°21.058 3°3.874 15.4502 3.851999 30.485347 7.207879
2005-06-15 07:20:48 51°21.065 3°3.889 15.4535 3.851789 30.484069 7.241589
2005-06-15 07:20:52 51°21.069 3°3.899 15.4588 3.851578 30.482213 7.005623
2005-06-15 07:20:57 51°21.074 3°3.908 15.4678 3.851578 30.482213 7.005623
2005-06-15 07:21:02 51°21.08 3°3.918 15.475 3.851578 30.482213 7.005623
2005-06-15 07:21:07 51°21.085 3°3.924 15.4767 3.849364 30.462723 7.241589
2005-06-15 07:21:12 51°21.09 3°3.931 15.4779 3.851262 30.47885 7.005623
2005-06-15 07:21:17 51°21.093 3°3.936 15.4773 3.851367 30.480935 7.005623
2005-06-15 07:21:22 51°21.098 3°3.942 15.4763 3.851367 30.4792 6.971913
2005-06-15 07:21:27 51°21.102 3°3.947 15.4759 3.851683 30.480249 6.938204
2005-06-15 07:21:32 51°21.106 3°3.952 15.4729 3.851683 30.480249 6.938204
2005-06-15 07:21:37 51°21.11 3°3.956 15.4731 3.84968 30.460305 6.904494
2005-06-15 07:21:42 51°21.114 3°3.961 15.475 3.849891 30.458115 6.803366
2005-06-15 07:21:46 51°21.117 3°3.965 15.4763 3.851367 30.466481 6.735947
2005-06-15 07:21:52 51°21.122 3°3.97 15.4725 3.853158 30.478783 6.702238
2005-06-15 07:21:57 51°21.125 3°3.973 15.4719 3.85084 30.457798 6.668529
2005-06-15 07:22:01 51°21.129 3°3.977 15.4738 3.85084 30.457798 6.668529
2005-06-15 07:22:07 51°21.134 3°3.981 15.4734 3.85358 30.48076 6.60111
2005-06-15 07:22:12 51°21.138 3°3.986 15.474 3.853685 30.482265 6.634819
2005-06-15 07:22:17 51°21.143 3°3.99 15.4721 3.85358 30.48076 6.5674
2005-06-15 07:22:22 51°21.148 3°3.995 15.4715 3.853685 30.481687 6.60111
2005-06-15 07:22:27 51°21.153 3°4 15.4726 3.853685 30.481687 6.60111
2005-06-15 07:22:32 51°21.158 3°4.005 15.4686 3.853685 30.482843 6.466272
2005-06-15 07:22:37 51°21.163 3°4.009 15.4666 3.854002 30.485626 6.432563
2005-06-15 07:22:42 51°21.168 3°4.014 15.4644 3.854107 30.485976 6.533691
2005-06-15 07:22:46 51°21.174 3°4.019 15.4639 3.854107 30.487132 6.398853
2005-06-15 07:22:52 51°21.18 3°4.026 15.4624 3.853896 30.484699 6.499982
2005-06-15 07:22:57 51°21.186 3°4.033 15.4587 3.853896 30.484699 6.499982
2005-06-15 07:23:02 51°21.191 3°4.039 15.4631 3.854318 30.488409 6.398853
2005-06-15 07:23:06 51°21.196 3°4.044 15.4596 3.854002 30.485626 6.297725
2005-06-15 07:23:12 51°21.203 3°4.052 15.4599 3.853053 30.47959 6.297725
2005-06-15 07:23:17 51°21.208 3°4.059 15.4596 3.854318 30.490144 6.365144
2005-06-15 07:23:22 51°21.213 3°4.066 15.46 3.853896 30.488746 6.331435
2005-06-15 07:23:27 51°21.219 3°4.074 15.459 3.851788 30.473081 6.264016
2005-06-15 07:23:32 51°21.225 3°4.082 15.4582 3.851788 30.473081 6.264016
2005-06-15 07:23:37 51°21.23 3°4.089 15.4581 3.851472 30.470876 6.365144
2005-06-15 07:23:42 51°21.235 3°4.098 15.4606 3.851051 30.468899 6.264016
2005-06-15 07:23:47 51°21.24 3°4.106 15.4626 3.853791 30.491867 6.365144
2005-06-15 07:23:53 51°21.246 3°4.116 15.4623 3.85358 30.491747 6.432563
2005-06-15 07:23:57 51°21.251 3°4.124 15.4634 3.85358 30.491747 6.432563
2005-06-15 07:24:02 51°21.255 3°4.133 15.4651 3.853475 30.491397 6.466272
2005-06-15 07:24:07 51°21.26 3°4.142 15.4629 3.853475 30.491397 6.432563
2005-06-15 07:24:12 51°21.264 3°4.152 15.4637 3.85358 30.492325 6.398853
2005-06-15 07:24:17 51°21.269 3°4.161 15.4625 3.854107 30.497544 6.432563
2005-06-15 07:24:21 51°21.272 3°4.168 15.4619 3.853896 30.495109 6.466272
2005-06-15 07:24:26 51°21.277 3°4.179 15.4623 3.853896 30.495109 6.466272
2005-06-15 07:24:32 51°21.282 3°4.191 15.4608 3.851578 30.473538 6.365144
2005-06-15 07:24:37 51°21.286 3°4.2 15.46 3.851683 30.47331 6.432563
2005-06-15 07:24:42 51°21.29 3°4.21 15.4608 3.852632 30.480504 6.365144
2005-06-15 07:24:47 51°21.294 3°4.22 15.4583 3.854318 30.495928 6.230306
2005-06-15 07:24:52 51°21.298 3°4.231 15.4584 3.854845 30.499989 6.162888
2005-06-15 07:24:57 51°21.302 3°4.241 15.4581 3.854845 30.499989 6.162888
2005-06-15 07:25:01 51°21.305 3°4.249 15.4587 3.85495 30.501496 6.331435
2005-06-15 07:25:07 51°21.309 3°4.262 15.4571 3.85474 30.500797 6.264016
2005-06-15 07:25:12 51°21.313 3°4.273 15.4553 3.854634 30.501026 6.129178
2005-06-15 07:25:17 51°21.316 3°4.283 15.4545 3.854634 30.498712 6.162888
2005-06-15 07:25:22 51°21.32 3°4.294 15.4565 3.855056 30.503581 6.365144
2005-06-15 07:25:27 51°21.323 3°4.304 15.4574 3.855056 30.504738 6.129178
2005-06-15 07:25:33 51°21.326 3°4.317 15.4576 3.855056 30.504738 6.129178
2005-06-15 07:25:37 51°21.328 3°4.327 15.4558 3.855056 30.505317 6.196597
2005-06-15 07:25:41 51°21.33 3°4.334 15.4588 3.852842 30.485251 6.331435
2005-06-15 07:25:46 51°21.333 3°4.346 15.4641 3.852948 30.486757 6.129178
2005-06-15 07:25:53 51°21.336 3°4.361 15.4612 3.855372 30.50868 6.196597
2005-06-15 07:25:57 51°21.337 3°4.369 15.4616 3.855372 30.50868 6.196597
2005-06-15 07:26:01 51°21.339 3°4.378 15.4615 3.85495 30.506704 6.162888
2005-06-15 07:26:07 51°21.342 3°4.392 15.4615 3.855056 30.506475 6.162888
2005-06-15 07:26:13 51°21.344 3°4.404 15.4618 3.854845 30.505197 6.162888
2005-06-15 07:26:17 51°21.346 3°4.414 15.4613 3.85495 30.506125 6.162888
2005-06-15 07:26:22 51°21.348 3°4.425 15.4568 3.85495 30.504968 6.061759
2005-06-15 07:26:27 51°21.35 3°4.435 15.4596 3.85495 30.504968 6.061759
2005-06-15 07:26:32 51°21.352 3°4.445 15.462 3.855161 30.505088 6.129178
2005-06-15 07:26:37 51°21.354 3°4.456 15.4581 3.853686 30.491518 6.162888
2005-06-15 07:26:42 51°21.356 3°4.467 15.4575 3.855056 30.50416 6.196597
2005-06-15 07:26:47 51°21.358 3°4.478 15.4543 3.855372 30.506365 6.095469
2005-06-15 07:26:52 51°21.36 3°4.488 15.4552 3.852842 30.484673 5.994341
2005-06-15 07:26:57 51°21.361 3°4.498 15.4554 3.855688 30.509728 6.095469
2005-06-15 07:27:01 51°21.362 3°4.504 15.4545 3.855688 30.509728 6.095469
2005-06-15 07:27:07 51°21.364 3°4.516 15.4554 3.852948 30.485601 6.02805
2005-06-15 07:27:12 51°21.366 3°4.526 15.4544 3.853159 30.488035 6.129178
2005-06-15 07:27:17 51°21.367 3°4.534 15.4543 3.855372 30.506944 6.129178
2005-06-15 07:27:22 51°21.369 3°4.543 15.4568 3.855161 30.506824 6.095469
2005-06-15 07:27:26 51°21.37 3°4.549 15.458 3.855161 30.506824 6.095469
2005-06-15 07:27:32 51°21.372 3°4.559 15.4604 3.855583 30.510536 6.162888
2005-06-15 07:27:37 51°21.373 3°4.567 15.4612 3.854423 30.501485 6.162888
2005-06-15 07:27:42 51°21.375 3°4.576 15.4611 3.855161 30.508561 6.162888
2005-06-15 07:27:47 51°21.376 3°4.583 15.4621 3.852737 30.486637 6.196597
2005-06-15 07:27:52 51°21.377 3°4.592 15.4623 3.855267 30.508331 6.129178
2005-06-15 07:27:57 51°21.378 3°4.599 15.4631 3.855267 30.508331 6.129178
2005-06-15 07:28:02 51°21.379 3°4.606 15.4637 3.853686 30.496146 6.365144
2005-06-15 07:28:06 51°21.381 3°4.613 15.464 3.855267 30.50891 6.196597
2005-06-15 07:28:12 51°21.382 3°4.622 15.4651 3.852421 30.482118 6.230306
2005-06-15 07:28:17 51°21.383 3°4.628 15.4645 3.85495 30.502653 6.230306
2005-06-15 07:28:22 51°21.384 3°4.636 15.4662 3.84947 30.453826 6.230306
2005-06-15 07:28:28 51°21.385 3°4.644 15.469 3.855267 30.504858 6.230306
2005-06-15 07:28:32 51°21.386 3°4.651 15.4682 3.855267 30.504858 6.230306
2005-06-15 07:28:37 51°21.387 3°4.657 15.4698 3.852948 30.483287 6.365144
2005-06-15 07:28:42 51°21.388 3°4.665 15.4681 3.855477 30.505557 6.230306
2005-06-15 07:28:47 51°21.389 3°4.672 15.4682 3.855477 30.504399 6.196597
2005-06-15 07:28:52 51°21.39 3°4.679 15.4684 3.854002 30.491409 6.432563
2005-06-15 07:28:57 51°21.391 3°4.686 15.4679 3.853159 30.483408 6.499982
2005-06-15 07:29:02 51°21.393 3°4.693 15.4676 3.853159 30.483408 6.499982
2005-06-15 07:29:07 51°21.394 3°4.7 15.4665 3.855688 30.505098 6.162888
2005-06-15 07:29:12 51°21.395 3°4.707 15.4678 3.855266 30.501386 6.230306
2005-06-15 07:29:17 51°21.396 3°4.714 15.4701 3.856637 30.511713 6.196597
2005-06-15 07:29:22 51°21.398 3°4.721 15.4716 3.856004 30.505567 6.264016
2005-06-15 07:29:26 51°21.398 3°4.727 15.4714 3.855583 30.501856 6.264016
2005-06-15 07:29:32 51°21.4 3°4.735 15.4713 3.855583 30.501856 6.264016
2005-06-15 07:29:38 51°21.401 3°4.743 15.4708 3.855583 30.502434 6.264016
2005-06-15 07:29:42 51°21.403 3°4.749 15.4728 3.853158 30.481096 6.297725
2005-06-15 07:29:48 51°21.404 3°4.756 15.4747 3.853264 30.482023 6.398853
2005-06-15 07:29:52 51°21.405 3°4.762 15.475 3.855688 30.503362 6.432563
2005-06-15 07:29:57 51°21.406 3°4.768 15.476 3.855688 30.503362 6.432563
2005-06-15 07:30:02 51°21.408 3°4.776 15.4758 3.855688 30.502205 6.297725
2005-06-15 07:30:07 51°21.409 3°4.782 15.4759 3.855688 30.501048 6.331435
2005-06-15 07:30:12 51°21.41 3°4.789 15.4765 3.855899 30.502325 6.398853
2005-06-15 07:30:17 51°21.411 3°4.795 15.4762 3.856426 30.507542 6.499982
2005-06-15 07:30:21 51°21.412 3°4.8 15.4727 3.85611 30.503602 6.264016
2005-06-15 07:30:26 51°21.414 3°4.807 15.4729 3.856004 30.501517 6.398853
2005-06-15 07:30:32 51°21.415 3°4.815 15.4741 3.856004 30.501517 6.398853
2005-06-15 07:30:37 51°21.416 3°4.822 15.4734 3.85611 30.501867 6.398853
2005-06-15 07:30:42 51°21.417 3°4.828 15.4724 3.855899 30.498855 6.432563
2005-06-15 07:30:47 51°21.419 3°4.835 15.4719 3.856426 30.50465 6.533691
2005-06-15 07:30:52 51°21.42 3°4.841 15.4742 3.85611 30.50071 6.702238
2005-06-15 07:30:57 51°21.421 3°4.847 15.4733 3.856531 30.505577 6.499982
2005-06-15 07:31:02 51°21.422 3°4.854 15.4743 3.856531 30.505577 6.499982
2005-06-15 07:31:06 51°21.423 3°4.859 15.4718 3.856215 30.502794 6.533691
2005-06-15 07:31:12 51°21.425 3°4.866 15.4745 3.855793 30.499084 6.499982
2005-06-15 07:31:17 51°21.426 3°4.873 15.4728 3.856215 30.503373 6.533691
2005-06-15 07:31:21 51°21.426 3°4.879 15.4749 3.856004 30.502096 6.5674
2005-06-15 07:31:27 51°21.428 3°4.887 15.4732 3.856004 30.502096 6.5674
2005-06-15 07:31:32 51°21.429 3°4.893 15.4723 3.856847 30.508939 6.60111
2005-06-15 07:31:37 51°21.43 3°4.899 15.4725 3.855899 30.50059 6.60111
2005-06-15 07:31:41 51°21.431 3°4.905 15.4732 3.855793 30.50024 6.533691
2005-06-15 07:31:47 51°21.432 3°4.912 15.4709 3.85611 30.502445 6.668529
2005-06-15 07:31:52 51°21.434 3°4.919 15.4733 3.856004 30.501517 6.60111
2005-06-15 07:31:57 51°21.435 3°4.925 15.4739 3.855899 30.500011 6.735947
2005-06-15 07:32:02 51°21.436 3°4.932 15.4735 3.855899 30.500011 6.735947
2005-06-15 07:32:06 51°21.437 3°4.938 15.4734 3.85611 30.502445 6.702238
2005-06-15 07:32:12 51°21.438 3°4.946 15.4729 3.855793 30.499662 6.735947
2005-06-15 07:32:17 51°21.439 3°4.952 15.4709 3.855688 30.498734 6.702238
2005-06-15 07:32:22 51°21.44 3°4.958 15.4729 3.855899 30.50059 6.634819
2005-06-15 07:32:26 51°21.441 3°4.964 15.4731 3.855899 30.501168 6.668529
2005-06-15 07:32:32 51°21.442 3°4.972 15.4717 3.855899 30.501168 6.668529
2005-06-15 07:32:37 51°21.443 3°4.979 15.4711 3.855899 30.50059 6.5674
2005-06-15 07:32:42 51°21.444 3°4.986 15.4727 3.855899 30.500011 6.702238
2005-06-15 07:32:47 51°21.445 3°4.992 15.4727 3.855266 30.495024 6.60111
2005-06-15 07:32:52 51°21.447 3°4.999 15.4742 3.856004 30.501517 6.634819
2005-06-15 07:32:57 51°21.447 3°5.005 15.4754 3.85611 30.501867 6.769657
2005-06-15 07:33:01 51°21.448 3°5.01 15.4749 3.85611 30.501867 6.769657
2005-06-15 07:33:07 51°21.449 3°5.018 15.4722 3.855793 30.499662 6.702238
2005-06-15 07:33:13 51°21.45 3°5.026 15.4738 3.856004 30.500361 6.668529
2005-06-15 07:33:17 51°21.451 3°5.031 15.4714 3.855372 30.495951 6.870785
2005-06-15 07:33:22 51°21.452 3°5.038 15.4723 3.855688 30.498156 6.803366
2005-06-15 07:33:27 51°21.453 3°5.046 15.4715 3.855688 30.498156 6.803366
2005-06-15 07:33:32 51°21.454 3°5.052 15.4699 3.85611 30.501288 6.837076
2005-06-15 07:33:37 51°21.455 3°5.058 15.4699 3.855688 30.498156 6.803366
2005-06-15 07:33:42 51°21.456 3°5.066 15.4694 3.855477 30.495144 6.803366
2005-06-15 07:33:46 51°21.457 3°5.071 15.4685 3.855477 30.495722 6.870785
2005-06-15 07:33:52 51°21.458 3°5.079 15.4697 3.855793 30.497927 6.837076
2005-06-15 07:33:57 51°21.459 3°5.085 15.4683 3.855372 30.495951 6.837076
2005-06-15 07:34:02 51°21.46 3°5.093 15.4707 3.855372 30.495951 6.837076
2005-06-15 07:34:06 51°21.461 3°5.098 15.4745 3.855583 30.497228 6.803366
2005-06-15 07:34:12 51°21.462 3°5.106 15.4722 3.855266 30.495602 6.769657
2005-06-15 07:34:17 51°21.462 3°5.112 15.4689 3.855477 30.497457 6.870785
2005-06-15 07:34:22 51°21.464 3°5.119 15.4708 3.855372 30.497108 6.938204
2005-06-15 07:34:27 51°21.465 3°5.126 15.472 3.855056 30.494903 6.837076
2005-06-15 07:34:32 51°21.466 3°5.133 15.4713 3.855056 30.494903 6.837076
2005-06-15 07:34:37 51°21.466 3°5.139 15.4702 3.855266 30.495602 6.938204
2005-06-15 07:34:42 51°21.468 3°5.145 15.464 3.855266 30.495602 7.005623
2005-06-15 07:34:47 51°21.468 3°5.152 15.4666 3.855266 30.495024 6.904494
2005-06-15 07:34:52 51°21.47 3°5.16 15.4609 3.853896 30.481808 7.005623
2005-06-15 07:34:57 51°21.47 3°5.165 15.4618 3.853896 30.481808 7.005623
2005-06-15 07:35:02 51°21.471 3°5.173 15.4601 3.854634 30.489458 6.837076
2005-06-15 07:35:07 51°21.472 3°5.18 15.4632 3.853369 30.478327 6.904494
2005-06-15 07:35:12 51°21.473 3°5.186 15.4626 3.855372 30.495951 7.039332
2005-06-15 07:35:17 51°21.474 3°5.192 15.4617 3.855266 30.496759 6.904494
2005-06-15 07:35:22 51°21.475 3°5.199 15.4594 3.855793 30.50024 7.14046
2005-06-15 07:35:27 51°21.476 3°5.205 15.4592 3.855793 30.50024 7.14046
2005-06-15 07:35:32 51°21.477 3°5.212 15.4618 3.855266 30.497337 7.039332
2005-06-15 07:35:37 51°21.478 3°5.218 15.4663 3.855372 30.501157 6.904494
2005-06-15 07:35:42 51°21.479 3°5.226 15.4639 3.855056 30.498952 7.039332
2005-06-15 07:35:47 51°21.48 3°5.232 15.4615 3.855161 30.500459 7.005623
2005-06-15 07:35:52 51°21.48 3°5.239 15.4575 3.85495 30.498024 7.039332
2005-06-15 07:35:57 51°21.481 3°5.245 15.456 3.855056 30.500109 6.971913
2005-06-15 07:36:02 51°21.482 3°5.251 15.4547 3.855056 30.500109 6.971913
2005-06-15 07:36:06 51°21.483 3°5.257 15.4621 3.85495 30.500917 7.073042
2005-06-15 07:36:12 51°21.484 3°5.265 15.4637 3.854845 30.499989 7.039332
2005-06-15 07:36:17 51°21.486 3°5.271 15.4649 3.854845 30.497097 7.106751